<?xml version="1.0" encoding="UTF-8" standalone="no" ?>
<gpx xmlns="http://www.topografix.com/GPX/1/1" xmlns:xsi="http://www.w3.org/2001/XMLSchema-instance" xsi:schemaLocation="http://www.topografix.com/GPX/1/1 http://www.topografix.com/GPX/1/1/gpx.xsd" version="1.1" creator="VisuGPX - https://www.visugpx.com">
  <metadata>
    <name>Sous Ceuse et Ceusette et la Durance</name>
    <desc><![CDATA[Un circuit sous Ceuse avec vue panoramique sur les Hautes Alpes]]></desc>
  </metadata>
  <trk>
    <name><![CDATA[N°8 18/20/2011]]></name>
    <trkseg>
      <trkpt lat="44.55878" lon="6.07504">
        <ele>782.650635</ele>
        <time>2011-02-18T11:16:05Z</time>
      </trkpt>
      <trkpt lat="44.55879" lon="6.07492">
        <ele>778.805176</ele>
        <time>2011-02-18T11:16:18Z</time>
      </trkpt>
      <trkpt lat="44.55878" lon="6.07493">
        <ele>775.921143</ele>
        <time>2011-02-18T11:16:20Z</time>
      </trkpt>
      <trkpt lat="44.55878" lon="6.07494">
        <ele>772.556641</ele>
        <time>2011-02-18T11:16:23Z</time>
      </trkpt>
      <trkpt lat="44.55878" lon="6.07494">
        <ele>770.634033</ele>
        <time>2011-02-18T11:16:26Z</time>
      </trkpt>
      <trkpt lat="44.55877" lon="6.07493">
        <ele>767.269531</ele>
        <time>2011-02-18T11:16:29Z</time>
      </trkpt>
      <trkpt lat="44.55877" lon="6.07492">
        <ele>767.269531</ele>
        <time>2011-02-18T11:16:30Z</time>
      </trkpt>
      <trkpt lat="44.55876" lon="6.07492">
        <ele>764.866211</ele>
        <time>2011-02-18T11:16:33Z</time>
      </trkpt>
      <trkpt lat="44.55876" lon="6.07493">
        <ele>761.501465</ele>
        <time>2011-02-18T11:16:56Z</time>
      </trkpt>
      <trkpt lat="44.55876" lon="6.07493">
        <ele>760.059326</ele>
        <time>2011-02-18T11:16:58Z</time>
      </trkpt>
      <trkpt lat="44.55876" lon="6.07493">
        <ele>757.175537</ele>
        <time>2011-02-18T11:17:04Z</time>
      </trkpt>
      <trkpt lat="44.55877" lon="6.07494">
        <ele>754.291748</ele>
        <time>2011-02-18T11:17:11Z</time>
      </trkpt>
      <trkpt lat="44.55889" lon="6.07502">
        <ele>750.927002</ele>
        <time>2011-02-18T11:17:20Z</time>
      </trkpt>
      <trkpt lat="44.55898" lon="6.07509">
        <ele>750.446533</ele>
        <time>2011-02-18T11:17:31Z</time>
      </trkpt>
      <trkpt lat="44.55921" lon="6.07532">
        <ele>748.043213</ele>
        <time>2011-02-18T11:17:43Z</time>
      </trkpt>
      <trkpt lat="44.55928" lon="6.07541">
        <ele>746.120361</ele>
        <time>2011-02-18T11:17:51Z</time>
      </trkpt>
      <trkpt lat="44.55931" lon="6.07545">
        <ele>746.120361</ele>
        <time>2011-02-18T11:17:54Z</time>
      </trkpt>
      <trkpt lat="44.55935" lon="6.07549">
        <ele>744.678223</ele>
        <time>2011-02-18T11:17:57Z</time>
      </trkpt>
      <trkpt lat="44.55968" lon="6.0758">
        <ele>744.197754</ele>
        <time>2011-02-18T11:18:15Z</time>
      </trkpt>
      <trkpt lat="44.55979" lon="6.07577">
        <ele>743.717041</ele>
        <time>2011-02-18T11:18:22Z</time>
      </trkpt>
      <trkpt lat="44.5598" lon="6.07545">
        <ele>744.678223</ele>
        <time>2011-02-18T11:18:37Z</time>
      </trkpt>
      <trkpt lat="44.55979" lon="6.07542">
        <ele>744.678223</ele>
        <time>2011-02-18T11:18:39Z</time>
      </trkpt>
      <trkpt lat="44.5598" lon="6.07539">
        <ele>744.678223</ele>
        <time>2011-02-18T11:18:41Z</time>
      </trkpt>
      <trkpt lat="44.55986" lon="6.07533">
        <ele>744.197754</ele>
        <time>2011-02-18T11:18:47Z</time>
      </trkpt>
      <trkpt lat="44.55985" lon="6.07527">
        <ele>745.158936</ele>
        <time>2011-02-18T11:18:51Z</time>
      </trkpt>
      <trkpt lat="44.55983" lon="6.07519">
        <ele>745.158936</ele>
        <time>2011-02-18T11:19:11Z</time>
      </trkpt>
      <trkpt lat="44.55972" lon="6.07488">
        <ele>745.158936</ele>
        <time>2011-02-18T11:19:21Z</time>
      </trkpt>
      <trkpt lat="44.55952" lon="6.07421">
        <ele>748.523682</ele>
        <time>2011-02-18T11:19:41Z</time>
      </trkpt>
      <trkpt lat="44.55928" lon="6.0735">
        <ele>751.407715</ele>
        <time>2011-02-18T11:20:03Z</time>
      </trkpt>
      <trkpt lat="44.55907" lon="6.0728">
        <ele>754.291748</ele>
        <time>2011-02-18T11:20:24Z</time>
      </trkpt>
      <trkpt lat="44.55887" lon="6.07216">
        <ele>757.175537</ele>
        <time>2011-02-18T11:20:44Z</time>
      </trkpt>
      <trkpt lat="44.55868" lon="6.07153">
        <ele>760.059326</ele>
        <time>2011-02-18T11:21:03Z</time>
      </trkpt>
      <trkpt lat="44.55844" lon="6.07084">
        <ele>763.424072</ele>
        <time>2011-02-18T11:21:25Z</time>
      </trkpt>
      <trkpt lat="44.55806" lon="6.0707">
        <ele>764.866211</ele>
        <time>2011-02-18T11:21:42Z</time>
      </trkpt>
      <trkpt lat="44.55781" lon="6.07105">
        <ele>766.788818</ele>
        <time>2011-02-18T11:21:56Z</time>
      </trkpt>
      <trkpt lat="44.55762" lon="6.07161">
        <ele>769.192139</ele>
        <time>2011-02-18T11:22:15Z</time>
      </trkpt>
      <trkpt lat="44.55733" lon="6.07144">
        <ele>771.114746</ele>
        <time>2011-02-18T11:22:29Z</time>
      </trkpt>
      <trkpt lat="44.5571" lon="6.07084">
        <ele>774.479248</ele>
        <time>2011-02-18T11:22:49Z</time>
      </trkpt>
      <trkpt lat="44.55705" lon="6.07023">
        <ele>777.363281</ele>
        <time>2011-02-18T11:23:09Z</time>
      </trkpt>
      <trkpt lat="44.55725" lon="6.06977">
        <ele>780.247314</ele>
        <time>2011-02-18T11:23:26Z</time>
      </trkpt>
      <trkpt lat="44.55769" lon="6.06921">
        <ele>783.611816</ele>
        <time>2011-02-18T11:23:50Z</time>
      </trkpt>
      <trkpt lat="44.55792" lon="6.06877">
        <ele>785.534424</ele>
        <time>2011-02-18T11:24:08Z</time>
      </trkpt>
      <trkpt lat="44.5579" lon="6.06838">
        <ele>786.49585</ele>
        <time>2011-02-18T11:24:20Z</time>
      </trkpt>
      <trkpt lat="44.55754" lon="6.06805">
        <ele>787.937744</ele>
        <time>2011-02-18T11:24:36Z</time>
      </trkpt>
      <trkpt lat="44.55703" lon="6.06794">
        <ele>790.821533</ele>
        <time>2011-02-18T11:24:56Z</time>
      </trkpt>
      <trkpt lat="44.5567" lon="6.06764">
        <ele>792.744385</ele>
        <time>2011-02-18T11:25:12Z</time>
      </trkpt>
      <trkpt lat="44.55648" lon="6.06693">
        <ele>795.628174</ele>
        <time>2011-02-18T11:25:35Z</time>
      </trkpt>
      <trkpt lat="44.55626" lon="6.06625">
        <ele>798.99292</ele>
        <time>2011-02-18T11:25:56Z</time>
      </trkpt>
      <trkpt lat="44.55602" lon="6.0655">
        <ele>801.876953</ele>
        <time>2011-02-18T11:26:19Z</time>
      </trkpt>
      <trkpt lat="44.55604" lon="6.06482">
        <ele>804.760742</ele>
        <time>2011-02-18T11:26:39Z</time>
      </trkpt>
      <trkpt lat="44.55639" lon="6.06441">
        <ele>807.644775</ele>
        <time>2011-02-18T11:26:58Z</time>
      </trkpt>
      <trkpt lat="44.55685" lon="6.06401">
        <ele>811.009277</ele>
        <time>2011-02-18T11:27:20Z</time>
      </trkpt>
      <trkpt lat="44.55722" lon="6.06356">
        <ele>813.893311</ele>
        <time>2011-02-18T11:27:41Z</time>
      </trkpt>
      <trkpt lat="44.55723" lon="6.06284">
        <ele>816.777344</ele>
        <time>2011-02-18T11:28:02Z</time>
      </trkpt>
      <trkpt lat="44.55686" lon="6.06241">
        <ele>819.180664</ele>
        <time>2011-02-18T11:28:21Z</time>
      </trkpt>
      <trkpt lat="44.55645" lon="6.06194">
        <ele>822.064453</ele>
        <time>2011-02-18T11:28:42Z</time>
      </trkpt>
      <trkpt lat="44.55652" lon="6.06142">
        <ele>824.467773</ele>
        <time>2011-02-18T11:28:58Z</time>
      </trkpt>
      <trkpt lat="44.55689" lon="6.06092">
        <ele>827.351807</ele>
        <time>2011-02-18T11:29:19Z</time>
      </trkpt>
      <trkpt lat="44.55737" lon="6.06021">
        <ele>829.274414</ele>
        <time>2011-02-18T11:29:45Z</time>
      </trkpt>
      <trkpt lat="44.55746" lon="6.05936">
        <ele>829.274414</ele>
        <time>2011-02-18T11:30:03Z</time>
      </trkpt>
      <trkpt lat="44.55749" lon="6.05827">
        <ele>830.716553</ele>
        <time>2011-02-18T11:30:26Z</time>
      </trkpt>
      <trkpt lat="44.55752" lon="6.05725">
        <ele>833.600342</ele>
        <time>2011-02-18T11:30:52Z</time>
      </trkpt>
      <trkpt lat="44.55756" lon="6.05617">
        <ele>834.081055</ele>
        <time>2011-02-18T11:31:16Z</time>
      </trkpt>
      <trkpt lat="44.55769" lon="6.05539">
        <ele>836.484375</ele>
        <time>2011-02-18T11:31:36Z</time>
      </trkpt>
      <trkpt lat="44.55772" lon="6.05484">
        <ele>836.964844</ele>
        <time>2011-02-18T11:31:51Z</time>
      </trkpt>
      <trkpt lat="44.55763" lon="6.05422">
        <ele>839.368164</ele>
        <time>2011-02-18T11:32:08Z</time>
      </trkpt>
      <trkpt lat="44.55766" lon="6.05339">
        <ele>842.252197</ele>
        <time>2011-02-18T11:32:32Z</time>
      </trkpt>
      <trkpt lat="44.55768" lon="6.05273">
        <ele>845.616943</ele>
        <time>2011-02-18T11:32:52Z</time>
      </trkpt>
      <trkpt lat="44.55768" lon="6.05202">
        <ele>848.500732</ele>
        <time>2011-02-18T11:33:14Z</time>
      </trkpt>
      <trkpt lat="44.55763" lon="6.05131">
        <ele>851.384766</ele>
        <time>2011-02-18T11:33:36Z</time>
      </trkpt>
      <trkpt lat="44.55755" lon="6.05068">
        <ele>853.788086</ele>
        <time>2011-02-18T11:33:56Z</time>
      </trkpt>
      <trkpt lat="44.55743" lon="6.05001">
        <ele>856.671875</ele>
        <time>2011-02-18T11:34:19Z</time>
      </trkpt>
      <trkpt lat="44.55727" lon="6.0494">
        <ele>859.075195</ele>
        <time>2011-02-18T11:34:40Z</time>
      </trkpt>
      <trkpt lat="44.55705" lon="6.04873">
        <ele>861.47876</ele>
        <time>2011-02-18T11:35:04Z</time>
      </trkpt>
      <trkpt lat="44.55687" lon="6.0481">
        <ele>864.362549</ele>
        <time>2011-02-18T11:35:26Z</time>
      </trkpt>
      <trkpt lat="44.55677" lon="6.0475">
        <ele>867.246582</ele>
        <time>2011-02-18T11:35:47Z</time>
      </trkpt>
      <trkpt lat="44.5567" lon="6.04678">
        <ele>870.611084</ele>
        <time>2011-02-18T11:36:11Z</time>
      </trkpt>
      <trkpt lat="44.55663" lon="6.04617">
        <ele>872.533691</ele>
        <time>2011-02-18T11:36:32Z</time>
      </trkpt>
      <trkpt lat="44.55656" lon="6.04554">
        <ele>874.937012</ele>
        <time>2011-02-18T11:36:53Z</time>
      </trkpt>
      <trkpt lat="44.55645" lon="6.04485">
        <ele>877.340576</ele>
        <time>2011-02-18T11:37:17Z</time>
      </trkpt>
      <trkpt lat="44.55626" lon="6.04423">
        <ele>879.743652</ele>
        <time>2011-02-18T11:37:40Z</time>
      </trkpt>
      <trkpt lat="44.55599" lon="6.04362">
        <ele>882.627686</ele>
        <time>2011-02-18T11:38:05Z</time>
      </trkpt>
      <trkpt lat="44.55568" lon="6.04303">
        <ele>885.031006</ele>
        <time>2011-02-18T11:38:31Z</time>
      </trkpt>
      <trkpt lat="44.55537" lon="6.04252">
        <ele>888.876221</ele>
        <time>2011-02-18T11:38:55Z</time>
      </trkpt>
      <trkpt lat="44.55497" lon="6.04174">
        <ele>892.240967</ele>
        <time>2011-02-18T11:39:28Z</time>
      </trkpt>
      <trkpt lat="44.55467" lon="6.04125">
        <ele>894.644043</ele>
        <time>2011-02-18T11:39:50Z</time>
      </trkpt>
      <trkpt lat="44.55432" lon="6.0408">
        <ele>897.528076</ele>
        <time>2011-02-18T11:40:14Z</time>
      </trkpt>
      <trkpt lat="44.55388" lon="6.0404">
        <ele>899.931396</ele>
        <time>2011-02-18T11:40:40Z</time>
      </trkpt>
      <trkpt lat="44.55347" lon="6.03996">
        <ele>903.295898</ele>
        <time>2011-02-18T11:41:05Z</time>
      </trkpt>
      <trkpt lat="44.5531" lon="6.03949">
        <ele>906.179688</ele>
        <time>2011-02-18T11:41:29Z</time>
      </trkpt>
      <trkpt lat="44.55276" lon="6.03917">
        <ele>908.583252</ele>
        <time>2011-02-18T11:41:50Z</time>
      </trkpt>
      <trkpt lat="44.55217" lon="6.03873">
        <ele>911.467285</ele>
        <time>2011-02-18T11:42:22Z</time>
      </trkpt>
      <trkpt lat="44.55171" lon="6.03844">
        <ele>914.351074</ele>
        <time>2011-02-18T11:42:47Z</time>
      </trkpt>
      <trkpt lat="44.55128" lon="6.03822">
        <ele>916.754395</ele>
        <time>2011-02-18T11:43:09Z</time>
      </trkpt>
      <trkpt lat="44.55076" lon="6.03808">
        <ele>919.157715</ele>
        <time>2011-02-18T11:43:34Z</time>
      </trkpt>
      <trkpt lat="44.55029" lon="6.03799">
        <ele>921.080322</ele>
        <time>2011-02-18T11:43:58Z</time>
      </trkpt>
      <trkpt lat="44.54975" lon="6.03788">
        <ele>924.445068</ele>
        <time>2011-02-18T11:44:26Z</time>
      </trkpt>
      <trkpt lat="44.54919" lon="6.03784">
        <ele>927.329102</ele>
        <time>2011-02-18T11:44:55Z</time>
      </trkpt>
      <trkpt lat="44.54872" lon="6.03803">
        <ele>930.212891</ele>
        <time>2011-02-18T11:45:21Z</time>
      </trkpt>
      <trkpt lat="44.5483" lon="6.03814">
        <ele>933.09668</ele>
        <time>2011-02-18T11:45:43Z</time>
      </trkpt>
      <trkpt lat="44.54818" lon="6.03775">
        <ele>935.019531</ele>
        <time>2011-02-18T11:45:58Z</time>
      </trkpt>
      <trkpt lat="44.54845" lon="6.03752">
        <ele>936.941895</ele>
        <time>2011-02-18T11:46:13Z</time>
      </trkpt>
      <trkpt lat="44.54888" lon="6.03742">
        <ele>940.306885</ele>
        <time>2011-02-18T11:46:34Z</time>
      </trkpt>
      <trkpt lat="44.54917" lon="6.03719">
        <ele>941.748779</ele>
        <time>2011-02-18T11:46:50Z</time>
      </trkpt>
      <trkpt lat="44.54955" lon="6.03685">
        <ele>944.632568</ele>
        <time>2011-02-18T11:47:12Z</time>
      </trkpt>
      <trkpt lat="44.54991" lon="6.03656">
        <ele>947.035889</ele>
        <time>2011-02-18T11:47:34Z</time>
      </trkpt>
      <trkpt lat="44.55023" lon="6.03626">
        <ele>949.919922</ele>
        <time>2011-02-18T11:47:54Z</time>
      </trkpt>
      <trkpt lat="44.55073" lon="6.03597">
        <ele>951.842529</ele>
        <time>2011-02-18T11:48:21Z</time>
      </trkpt>
      <trkpt lat="44.55129" lon="6.03589">
        <ele>955.207031</ele>
        <time>2011-02-18T11:48:49Z</time>
      </trkpt>
      <trkpt lat="44.55174" lon="6.03586">
        <ele>957.129883</ele>
        <time>2011-02-18T11:49:12Z</time>
      </trkpt>
      <trkpt lat="44.55222" lon="6.03566">
        <ele>959.533203</ele>
        <time>2011-02-18T11:49:36Z</time>
      </trkpt>
      <trkpt lat="44.55263" lon="6.03524">
        <ele>960.494385</ele>
        <time>2011-02-18T11:49:59Z</time>
      </trkpt>
      <trkpt lat="44.55289" lon="6.03475">
        <ele>961.936523</ele>
        <time>2011-02-18T11:50:19Z</time>
      </trkpt>
      <trkpt lat="44.55306" lon="6.03399">
        <ele>963.858887</ele>
        <time>2011-02-18T11:50:44Z</time>
      </trkpt>
      <trkpt lat="44.55305" lon="6.03333">
        <ele>965.781738</ele>
        <time>2011-02-18T11:51:05Z</time>
      </trkpt>
      <trkpt lat="44.55287" lon="6.03267">
        <ele>967.704102</ele>
        <time>2011-02-18T11:51:28Z</time>
      </trkpt>
      <trkpt lat="44.55259" lon="6.03214">
        <ele>970.588135</ele>
        <time>2011-02-18T11:51:48Z</time>
      </trkpt>
      <trkpt lat="44.55216" lon="6.03147">
        <ele>972.991699</ele>
        <time>2011-02-18T11:52:16Z</time>
      </trkpt>
      <trkpt lat="44.55182" lon="6.03096">
        <ele>975.875488</ele>
        <time>2011-02-18T11:52:38Z</time>
      </trkpt>
      <trkpt lat="44.55143" lon="6.03037">
        <ele>977.317627</ele>
        <time>2011-02-18T11:53:04Z</time>
      </trkpt>
      <trkpt lat="44.55105" lon="6.02976">
        <ele>979.23999</ele>
        <time>2011-02-18T11:53:28Z</time>
      </trkpt>
      <trkpt lat="44.55098" lon="6.02966">
        <ele>981.162842</ele>
        <time>2011-02-18T11:53:32Z</time>
      </trkpt>
      <trkpt lat="44.55053" lon="6.02894">
        <ele>980.682129</ele>
        <time>2011-02-18T11:53:57Z</time>
      </trkpt>
      <trkpt lat="44.54989" lon="6.02798">
        <ele>982.124023</ele>
        <time>2011-02-18T11:54:25Z</time>
      </trkpt>
      <trkpt lat="44.54963" lon="6.02755">
        <ele>980.682129</ele>
        <time>2011-02-18T11:54:34Z</time>
      </trkpt>
      <trkpt lat="44.54955" lon="6.02729">
        <ele>979.720703</ele>
        <time>2011-02-18T11:54:38Z</time>
      </trkpt>
      <trkpt lat="44.54949" lon="6.02602">
        <ele>978.278809</ele>
        <time>2011-02-18T11:54:57Z</time>
      </trkpt>
      <trkpt lat="44.54958" lon="6.0251">
        <ele>977.317627</ele>
        <time>2011-02-18T11:55:11Z</time>
      </trkpt>
      <trkpt lat="44.54958" lon="6.02498">
        <ele>979.23999</ele>
        <time>2011-02-18T11:55:13Z</time>
      </trkpt>
      <trkpt lat="44.54958" lon="6.02492">
        <ele>979.23999</ele>
        <time>2011-02-18T11:55:14Z</time>
      </trkpt>
      <trkpt lat="44.54955" lon="6.02475">
        <ele>979.720703</ele>
        <time>2011-02-18T11:55:17Z</time>
      </trkpt>
      <trkpt lat="44.54939" lon="6.02425">
        <ele>978.759521</ele>
        <time>2011-02-18T11:55:27Z</time>
      </trkpt>
      <trkpt lat="44.54917" lon="6.02396">
        <ele>979.720703</ele>
        <time>2011-02-18T11:55:32Z</time>
      </trkpt>
      <trkpt lat="44.54825" lon="6.02379">
        <ele>979.720703</ele>
        <time>2011-02-18T11:55:52Z</time>
      </trkpt>
      <trkpt lat="44.54743" lon="6.02398">
        <ele>980.682129</ele>
        <time>2011-02-18T11:56:08Z</time>
      </trkpt>
      <trkpt lat="44.54734" lon="6.02398">
        <ele>978.278809</ele>
        <time>2011-02-18T11:56:10Z</time>
      </trkpt>
      <trkpt lat="44.54611" lon="6.02388">
        <ele>976.836914</ele>
        <time>2011-02-18T11:56:36Z</time>
      </trkpt>
      <trkpt lat="44.54494" lon="6.02377">
        <ele>975.875488</ele>
        <time>2011-02-18T11:57:02Z</time>
      </trkpt>
      <trkpt lat="44.54403" lon="6.02397">
        <ele>975.875488</ele>
        <time>2011-02-18T11:57:22Z</time>
      </trkpt>
      <trkpt lat="44.54363" lon="6.0241">
        <ele>975.394775</ele>
        <time>2011-02-18T11:57:31Z</time>
      </trkpt>
      <trkpt lat="44.5435" lon="6.02415">
        <ele>975.875488</ele>
        <time>2011-02-18T11:57:34Z</time>
      </trkpt>
      <trkpt lat="44.54259" lon="6.02486">
        <ele>974.914307</ele>
        <time>2011-02-18T11:57:56Z</time>
      </trkpt>
      <trkpt lat="44.54165" lon="6.02542">
        <ele>973.952881</ele>
        <time>2011-02-18T11:58:19Z</time>
      </trkpt>
      <trkpt lat="44.54097" lon="6.02568">
        <ele>973.472412</ele>
        <time>2011-02-18T11:58:35Z</time>
      </trkpt>
      <trkpt lat="44.54028" lon="6.02535">
        <ele>973.952881</ele>
        <time>2011-02-18T11:58:51Z</time>
      </trkpt>
      <trkpt lat="44.53991" lon="6.0244">
        <ele>973.472412</ele>
        <time>2011-02-18T11:59:07Z</time>
      </trkpt>
      <trkpt lat="44.53991" lon="6.0239">
        <ele>972.991699</ele>
        <time>2011-02-18T11:59:14Z</time>
      </trkpt>
      <trkpt lat="44.54008" lon="6.02232">
        <ele>972.991699</ele>
        <time>2011-02-18T11:59:39Z</time>
      </trkpt>
      <trkpt lat="44.54004" lon="6.02184">
        <ele>972.510986</ele>
        <time>2011-02-18T11:59:46Z</time>
      </trkpt>
      <trkpt lat="44.5396" lon="6.02055">
        <ele>972.030273</ele>
        <time>2011-02-18T12:00:06Z</time>
      </trkpt>
      <trkpt lat="44.53962" lon="6.01948">
        <ele>971.549316</ele>
        <time>2011-02-18T12:00:21Z</time>
      </trkpt>
      <trkpt lat="44.53982" lon="6.01878">
        <ele>972.030273</ele>
        <time>2011-02-18T12:00:32Z</time>
      </trkpt>
      <trkpt lat="44.53984" lon="6.01823">
        <ele>971.068848</ele>
        <time>2011-02-18T12:00:42Z</time>
      </trkpt>
      <trkpt lat="44.53974" lon="6.01785">
        <ele>971.549316</ele>
        <time>2011-02-18T12:00:49Z</time>
      </trkpt>
      <trkpt lat="44.53946" lon="6.0176">
        <ele>968.184814</ele>
        <time>2011-02-18T12:00:56Z</time>
      </trkpt>
      <trkpt lat="44.53892" lon="6.01693">
        <ele>966.74292</ele>
        <time>2011-02-18T12:01:09Z</time>
      </trkpt>
      <trkpt lat="44.53876" lon="6.01678">
        <ele>964.3396</ele>
        <time>2011-02-18T12:01:12Z</time>
      </trkpt>
      <trkpt lat="44.53832" lon="6.01664">
        <ele>962.416992</ele>
        <time>2011-02-18T12:01:18Z</time>
      </trkpt>
      <trkpt lat="44.53796" lon="6.01615">
        <ele>961.936523</ele>
        <time>2011-02-18T12:01:25Z</time>
      </trkpt>
      <trkpt lat="44.53774" lon="6.01542">
        <ele>963.858887</ele>
        <time>2011-02-18T12:01:35Z</time>
      </trkpt>
      <trkpt lat="44.53762" lon="6.01524">
        <ele>962.897705</ele>
        <time>2011-02-18T12:01:39Z</time>
      </trkpt>
      <trkpt lat="44.53744" lon="6.01506">
        <ele>961.936523</ele>
        <time>2011-02-18T12:01:44Z</time>
      </trkpt>
      <trkpt lat="44.53701" lon="6.01474">
        <ele>958.571777</ele>
        <time>2011-02-18T12:01:52Z</time>
      </trkpt>
      <trkpt lat="44.53694" lon="6.01468">
        <ele>958.571777</ele>
        <time>2011-02-18T12:01:53Z</time>
      </trkpt>
      <trkpt lat="44.53678" lon="6.01447">
        <ele>955.687744</ele>
        <time>2011-02-18T12:01:56Z</time>
      </trkpt>
      <trkpt lat="44.53668" lon="6.01432">
        <ele>957.610596</ele>
        <time>2011-02-18T12:01:58Z</time>
      </trkpt>
      <trkpt lat="44.53658" lon="6.01418">
        <ele>955.687744</ele>
        <time>2011-02-18T12:02:00Z</time>
      </trkpt>
      <trkpt lat="44.53644" lon="6.01398">
        <ele>953.284424</ele>
        <time>2011-02-18T12:02:03Z</time>
      </trkpt>
      <trkpt lat="44.53625" lon="6.01351">
        <ele>953.284424</ele>
        <time>2011-02-18T12:02:12Z</time>
      </trkpt>
      <trkpt lat="44.53617" lon="6.01341">
        <ele>953.765137</ele>
        <time>2011-02-18T12:02:15Z</time>
      </trkpt>
      <trkpt lat="44.53595" lon="6.01278">
        <ele>955.207031</ele>
        <time>2011-02-18T12:02:28Z</time>
      </trkpt>
      <trkpt lat="44.53593" lon="6.01238">
        <ele>954.24585</ele>
        <time>2011-02-18T12:02:37Z</time>
      </trkpt>
      <trkpt lat="44.53593" lon="6.01229">
        <ele>955.687744</ele>
        <time>2011-02-18T12:02:39Z</time>
      </trkpt>
      <trkpt lat="44.53593" lon="6.0116">
        <ele>956.64917</ele>
        <time>2011-02-18T12:02:53Z</time>
      </trkpt>
      <trkpt lat="44.536" lon="6.01097">
        <ele>956.168457</ele>
        <time>2011-02-18T12:03:08Z</time>
      </trkpt>
      <trkpt lat="44.53598" lon="6.01054">
        <ele>954.24585</ele>
        <time>2011-02-18T12:03:17Z</time>
      </trkpt>
      <trkpt lat="44.53529" lon="6.01039">
        <ele>954.726318</ele>
        <time>2011-02-18T12:03:28Z</time>
      </trkpt>
      <trkpt lat="44.53527" lon="6.01018">
        <ele>954.726318</ele>
        <time>2011-02-18T12:03:33Z</time>
      </trkpt>
      <trkpt lat="44.53527" lon="6.01025">
        <ele>954.24585</ele>
        <time>2011-02-18T12:03:45Z</time>
      </trkpt>
      <trkpt lat="44.53527" lon="6.01027">
        <ele>954.726318</ele>
        <time>2011-02-18T12:05:05Z</time>
      </trkpt>
      <trkpt lat="44.53473" lon="6.01025">
        <ele>951.842529</ele>
        <time>2011-02-18T12:05:17Z</time>
      </trkpt>
      <trkpt lat="44.53401" lon="6.01011">
        <ele>948.477783</ele>
        <time>2011-02-18T12:05:29Z</time>
      </trkpt>
      <trkpt lat="44.53348" lon="6.01018">
        <ele>946.074707</ele>
        <time>2011-02-18T12:05:37Z</time>
      </trkpt>
      <trkpt lat="44.53221" lon="6.01053">
        <ele>943.671387</ele>
        <time>2011-02-18T12:05:56Z</time>
      </trkpt>
      <trkpt lat="44.53127" lon="6.01088">
        <ele>941.748779</ele>
        <time>2011-02-18T12:06:12Z</time>
      </trkpt>
      <trkpt lat="44.53113" lon="6.01092">
        <ele>940.787354</ele>
        <time>2011-02-18T12:06:14Z</time>
      </trkpt>
      <trkpt lat="44.53069" lon="6.0111">
        <ele>940.787354</ele>
        <time>2011-02-18T12:06:21Z</time>
      </trkpt>
      <trkpt lat="44.53008" lon="6.011">
        <ele>942.229492</ele>
        <time>2011-02-18T12:06:33Z</time>
      </trkpt>
      <trkpt lat="44.52975" lon="6.01077">
        <ele>945.593994</ele>
        <time>2011-02-18T12:06:47Z</time>
      </trkpt>
      <trkpt lat="44.52926" lon="6.01044">
        <ele>947.035889</ele>
        <time>2011-02-18T12:07:07Z</time>
      </trkpt>
      <trkpt lat="44.52895" lon="6.01033">
        <ele>947.035889</ele>
        <time>2011-02-18T12:07:16Z</time>
      </trkpt>
      <trkpt lat="44.52878" lon="6.01032">
        <ele>946.55542</ele>
        <time>2011-02-18T12:07:20Z</time>
      </trkpt>
      <trkpt lat="44.52802" lon="6.01016">
        <ele>945.113281</ele>
        <time>2011-02-18T12:07:36Z</time>
      </trkpt>
      <trkpt lat="44.52785" lon="6.01012">
        <ele>945.593994</ele>
        <time>2011-02-18T12:07:40Z</time>
      </trkpt>
      <trkpt lat="44.52776" lon="6.01009">
        <ele>945.593994</ele>
        <time>2011-02-18T12:07:42Z</time>
      </trkpt>
      <trkpt lat="44.52731" lon="6.00972">
        <ele>947.997314</ele>
        <time>2011-02-18T12:07:58Z</time>
      </trkpt>
      <trkpt lat="44.52702" lon="6.0094">
        <ele>950.400635</ele>
        <time>2011-02-18T12:08:12Z</time>
      </trkpt>
      <trkpt lat="44.52664" lon="6.00894">
        <ele>953.284424</ele>
        <time>2011-02-18T12:08:32Z</time>
      </trkpt>
      <trkpt lat="44.53573" lon="6.01006">
        <ele>956.304688</ele>
      </trkpt>
      <trkpt lat="44.53465" lon="6.01028">
        <ele>953.167969</ele>
      </trkpt>
      <trkpt lat="44.5334" lon="6.01028">
        <ele>948.050781</ele>
      </trkpt>
      <trkpt lat="44.53232" lon="6.01028">
        <ele>947.449219</ele>
      </trkpt>
      <trkpt lat="44.53124" lon="6.0105">
        <ele>946.648438</ele>
      </trkpt>
      <trkpt lat="44.53034" lon="6.01094">
        <ele>943.050781</ele>
      </trkpt>
      <trkpt lat="44.52926" lon="6.01094">
        <ele>943.121094</ele>
      </trkpt>
      <trkpt lat="44.52854" lon="6.01028">
        <ele>947.398438</ele>
      </trkpt>
      <trkpt lat="44.52783" lon="6.0094">
        <ele>953.667969</ele>
      </trkpt>
      <trkpt lat="44.52711" lon="6.00852">
        <ele>961.390625</ele>
      </trkpt>
      <trkpt lat="44.52711" lon="6.00852">
        <ele>961.390625</ele>
      </trkpt>
      <trkpt lat="44.52639" lon="6.00787">
        <ele>967.753906</ele>
      </trkpt>
      <trkpt lat="44.52549" lon="6.00743">
        <ele>967.023438</ele>
      </trkpt>
      <trkpt lat="44.52441" lon="6.00721">
        <ele>967.523438</ele>
      </trkpt>
      <trkpt lat="44.52333" lon="6.00699">
        <ele>969.527344</ele>
      </trkpt>
      <trkpt lat="44.52244" lon="6.00743">
        <ele>968.820313</ele>
      </trkpt>
      <trkpt lat="44.52172" lon="6.00808">
        <ele>968.316406</ele>
      </trkpt>
      <trkpt lat="44.521" lon="6.00874">
        <ele>969.4375</ele>
      </trkpt>
      <trkpt lat="44.5201" lon="6.00918">
        <ele>971.589844</ele>
      </trkpt>
      <trkpt lat="44.5192" lon="6.00984">
        <ele>971.226563</ele>
      </trkpt>
      <trkpt lat="44.51848" lon="6.0105">
        <ele>974.253906</ele>
      </trkpt>
      <trkpt lat="44.51759" lon="6.01094">
        <ele>981.605469</ele>
      </trkpt>
      <trkpt lat="44.51651" lon="6.01116">
        <ele>982.175781</ele>
      </trkpt>
      <trkpt lat="44.51543" lon="6.01116">
        <ele>976.421875</ele>
      </trkpt>
      <trkpt lat="44.51435" lon="6.01094">
        <ele>981.59375</ele>
      </trkpt>
      <trkpt lat="44.51363" lon="6.01006">
        <ele>980.828125</ele>
      </trkpt>
      <trkpt lat="44.51291" lon="6.00896">
        <ele>980.949219</ele>
      </trkpt>
      <trkpt lat="44.51237" lon="6.00787">
        <ele>980.054688</ele>
      </trkpt>
      <trkpt lat="44.5122" lon="6.00633">
        <ele>981.71875</ele>
      </trkpt>
      <trkpt lat="44.51202" lon="6.00501">
        <ele>986.023438</ele>
      </trkpt>
      <trkpt lat="44.51184" lon="6.00348">
        <ele>989.574219</ele>
      </trkpt>
      <trkpt lat="44.51184" lon="6.00194">
        <ele>990.765625</ele>
      </trkpt>
      <trkpt lat="44.51184" lon="6.00063">
        <ele>993.050781</ele>
      </trkpt>
      <trkpt lat="44.51168" lon="6.00144">
        <ele>993.659912</ele>
        <time>2011-02-18T12:20:07Z</time>
      </trkpt>
      <trkpt lat="44.51167" lon="6.00142">
        <ele>994.140625</ele>
        <time>2011-02-18T12:20:22Z</time>
      </trkpt>
      <trkpt lat="44.51168" lon="6.00141">
        <ele>991.256592</ele>
        <time>2011-02-18T12:20:59Z</time>
      </trkpt>
      <trkpt lat="44.51169" lon="6.00141">
        <ele>992.218018</ele>
        <time>2011-02-18T12:21:01Z</time>
      </trkpt>
      <trkpt lat="44.51167" lon="6.00135">
        <ele>990.775879</ele>
        <time>2011-02-18T12:21:04Z</time>
      </trkpt>
      <trkpt lat="44.51171" lon="6.00061">
        <ele>991.256592</ele>
        <time>2011-02-18T12:21:20Z</time>
      </trkpt>
      <trkpt lat="44.51138" lon="6.00008">
        <ele>990.29541</ele>
        <time>2011-02-18T12:21:34Z</time>
      </trkpt>
      <trkpt lat="44.51086" lon="5.99963">
        <ele>993.179199</ele>
        <time>2011-02-18T12:21:53Z</time>
      </trkpt>
      <trkpt lat="44.51055" lon="5.99893">
        <ele>994.621094</ele>
        <time>2011-02-18T12:22:12Z</time>
      </trkpt>
      <trkpt lat="44.51034" lon="5.99828">
        <ele>996.543945</ele>
        <time>2011-02-18T12:22:29Z</time>
      </trkpt>
      <trkpt lat="44.51043" lon="5.99783">
        <ele>997.505127</ele>
        <time>2011-02-18T12:22:39Z</time>
      </trkpt>
      <trkpt lat="44.5108" lon="5.99714">
        <ele>997.505127</ele>
        <time>2011-02-18T12:22:57Z</time>
      </trkpt>
      <trkpt lat="44.511" lon="5.99647">
        <ele>997.98584</ele>
        <time>2011-02-18T12:23:12Z</time>
      </trkpt>
      <trkpt lat="44.51074" lon="5.99585">
        <ele>998.466309</ele>
        <time>2011-02-18T12:23:26Z</time>
      </trkpt>
      <trkpt lat="44.51036" lon="5.99516">
        <ele>999.908447</ele>
        <time>2011-02-18T12:23:44Z</time>
      </trkpt>
      <trkpt lat="44.51003" lon="5.99434">
        <ele>1002.311523</ele>
        <time>2011-02-18T12:24:07Z</time>
      </trkpt>
      <trkpt lat="44.51006" lon="5.99354">
        <ele>1004.715088</ele>
        <time>2011-02-18T12:24:28Z</time>
      </trkpt>
      <trkpt lat="44.51008" lon="5.99323">
        <ele>1006.156982</ele>
        <time>2011-02-18T12:24:36Z</time>
      </trkpt>
      <trkpt lat="44.51008" lon="5.99266">
        <ele>1007.118408</ele>
        <time>2011-02-18T12:24:51Z</time>
      </trkpt>
      <trkpt lat="44.50981" lon="5.99223">
        <ele>1008.079834</ele>
        <time>2011-02-18T12:25:06Z</time>
      </trkpt>
      <trkpt lat="44.5095" lon="5.99216">
        <ele>1010.002197</ele>
        <time>2011-02-18T12:25:17Z</time>
      </trkpt>
      <trkpt lat="44.50883" lon="5.99202">
        <ele>1012.405518</ele>
        <time>2011-02-18T12:25:41Z</time>
      </trkpt>
      <trkpt lat="44.50848" lon="5.99196">
        <ele>1013.847412</ele>
        <time>2011-02-18T12:25:54Z</time>
      </trkpt>
      <trkpt lat="44.50839" lon="5.99194">
        <ele>1012.88623</ele>
        <time>2011-02-18T12:25:57Z</time>
      </trkpt>
      <trkpt lat="44.50789" lon="5.99193">
        <ele>1015.289551</ele>
        <time>2011-02-18T12:26:15Z</time>
      </trkpt>
      <trkpt lat="44.5074" lon="5.99221">
        <ele>1015.770264</ele>
        <time>2011-02-18T12:26:33Z</time>
      </trkpt>
      <trkpt lat="44.507" lon="5.99284">
        <ele>1016.250732</ele>
        <time>2011-02-18T12:26:51Z</time>
      </trkpt>
      <trkpt lat="44.50671" lon="5.99336">
        <ele>1017.212158</ele>
        <time>2011-02-18T12:27:05Z</time>
      </trkpt>
      <trkpt lat="44.50658" lon="5.99369">
        <ele>1017.692627</ele>
        <time>2011-02-18T12:27:14Z</time>
      </trkpt>
      <trkpt lat="44.50631" lon="5.99423">
        <ele>1017.692627</ele>
        <time>2011-02-18T12:27:28Z</time>
      </trkpt>
      <trkpt lat="44.5057" lon="5.99471">
        <ele>1019.134766</ele>
        <time>2011-02-18T12:27:49Z</time>
      </trkpt>
      <trkpt lat="44.50513" lon="5.99499">
        <ele>1019.615479</ele>
        <time>2011-02-18T12:28:08Z</time>
      </trkpt>
      <trkpt lat="44.50453" lon="5.9952">
        <ele>1019.615479</ele>
        <time>2011-02-18T12:28:26Z</time>
      </trkpt>
      <trkpt lat="44.50387" lon="5.99512">
        <ele>1020.096191</ele>
        <time>2011-02-18T12:28:45Z</time>
      </trkpt>
      <trkpt lat="44.50323" lon="5.99524">
        <ele>1020.576904</ele>
        <time>2011-02-18T12:29:04Z</time>
      </trkpt>
      <trkpt lat="44.50279" lon="5.99529">
        <ele>1022.499512</ele>
        <time>2011-02-18T12:29:17Z</time>
      </trkpt>
      <trkpt lat="44.50251" lon="5.99527">
        <ele>1023.941406</ele>
        <time>2011-02-18T12:29:25Z</time>
      </trkpt>
      <trkpt lat="44.50178" lon="5.99494">
        <ele>1024.422119</ele>
        <time>2011-02-18T12:29:48Z</time>
      </trkpt>
      <trkpt lat="44.50117" lon="5.99483">
        <ele>1026.344727</ele>
        <time>2011-02-18T12:30:09Z</time>
      </trkpt>
      <trkpt lat="44.50076" lon="5.99492">
        <ele>1028.748047</ele>
        <time>2011-02-18T12:30:22Z</time>
      </trkpt>
      <trkpt lat="44.50006" lon="5.99519">
        <ele>1030.670654</ele>
        <time>2011-02-18T12:30:46Z</time>
      </trkpt>
      <trkpt lat="44.49956" lon="5.99535">
        <ele>1032.112549</ele>
        <time>2011-02-18T12:31:03Z</time>
      </trkpt>
      <trkpt lat="44.4988" lon="5.99549">
        <ele>1034.515869</ele>
        <time>2011-02-18T12:31:28Z</time>
      </trkpt>
      <trkpt lat="44.49817" lon="5.99553">
        <ele>1035.957764</ele>
        <time>2011-02-18T12:31:48Z</time>
      </trkpt>
      <trkpt lat="44.49758" lon="5.99535">
        <ele>1037.880615</ele>
        <time>2011-02-18T12:32:08Z</time>
      </trkpt>
      <trkpt lat="44.49704" lon="5.99488">
        <ele>1040.283936</ele>
        <time>2011-02-18T12:32:29Z</time>
      </trkpt>
      <trkpt lat="44.49701" lon="5.99462">
        <ele>1039.803223</ele>
        <time>2011-02-18T12:32:34Z</time>
      </trkpt>
      <trkpt lat="44.49741" lon="5.9938">
        <ele>1039.803223</ele>
        <time>2011-02-18T12:32:52Z</time>
      </trkpt>
      <trkpt lat="44.4976" lon="5.9936">
        <ele>1041.245117</ele>
        <time>2011-02-18T12:32:58Z</time>
      </trkpt>
      <trkpt lat="44.49772" lon="5.99339">
        <ele>1039.803223</ele>
        <time>2011-02-18T12:33:03Z</time>
      </trkpt>
      <trkpt lat="44.49791" lon="5.99275">
        <ele>1039.803223</ele>
        <time>2011-02-18T12:33:15Z</time>
      </trkpt>
      <trkpt lat="44.49795" lon="5.99259">
        <ele>1040.283936</ele>
        <time>2011-02-18T12:33:18Z</time>
      </trkpt>
      <trkpt lat="44.49799" lon="5.992">
        <ele>1039.803223</ele>
        <time>2011-02-18T12:33:28Z</time>
      </trkpt>
      <trkpt lat="44.49786" lon="5.99059">
        <ele>1040.283936</ele>
        <time>2011-02-18T12:33:51Z</time>
      </trkpt>
      <trkpt lat="44.49785" lon="5.99048">
        <ele>1040.283936</ele>
        <time>2011-02-18T12:33:53Z</time>
      </trkpt>
      <trkpt lat="44.49776" lon="5.99014">
        <ele>1040.283936</ele>
        <time>2011-02-18T12:33:59Z</time>
      </trkpt>
      <trkpt lat="44.49768" lon="5.98998">
        <ele>1040.764404</ele>
        <time>2011-02-18T12:34:02Z</time>
      </trkpt>
      <trkpt lat="44.49708" lon="5.98947">
        <ele>1039.32251</ele>
        <time>2011-02-18T12:34:18Z</time>
      </trkpt>
      <trkpt lat="44.49693" lon="5.98936">
        <ele>1038.842041</ele>
        <time>2011-02-18T12:34:22Z</time>
      </trkpt>
      <trkpt lat="44.49645" lon="5.98857">
        <ele>1040.283936</ele>
        <time>2011-02-18T12:34:40Z</time>
      </trkpt>
      <trkpt lat="44.49639" lon="5.98828">
        <ele>1039.32251</ele>
        <time>2011-02-18T12:34:45Z</time>
      </trkpt>
      <trkpt lat="44.49629" lon="5.98777">
        <ele>1039.803223</ele>
        <time>2011-02-18T12:34:54Z</time>
      </trkpt>
      <trkpt lat="44.49626" lon="5.98754">
        <ele>1039.803223</ele>
        <time>2011-02-18T12:34:58Z</time>
      </trkpt>
      <trkpt lat="44.49622" lon="5.98719">
        <ele>1039.32251</ele>
        <time>2011-02-18T12:35:04Z</time>
      </trkpt>
      <trkpt lat="44.49618" lon="5.98697">
        <ele>1039.803223</ele>
        <time>2011-02-18T12:35:08Z</time>
      </trkpt>
      <trkpt lat="44.49605" lon="5.98674">
        <ele>1040.283936</ele>
        <time>2011-02-18T12:35:13Z</time>
      </trkpt>
      <trkpt lat="44.49599" lon="5.98668">
        <ele>1039.32251</ele>
        <time>2011-02-18T12:35:15Z</time>
      </trkpt>
      <trkpt lat="44.49576" lon="5.98659">
        <ele>1040.283936</ele>
        <time>2011-02-18T12:35:21Z</time>
      </trkpt>
      <trkpt lat="44.49549" lon="5.98652">
        <ele>1039.32251</ele>
        <time>2011-02-18T12:35:27Z</time>
      </trkpt>
      <trkpt lat="44.49509" lon="5.98621">
        <ele>1039.32251</ele>
        <time>2011-02-18T12:35:37Z</time>
      </trkpt>
      <trkpt lat="44.49428" lon="5.98598">
        <ele>1039.803223</ele>
        <time>2011-02-18T12:35:58Z</time>
      </trkpt>
      <trkpt lat="44.49347" lon="5.9858">
        <ele>1040.283936</ele>
        <time>2011-02-18T12:36:19Z</time>
      </trkpt>
      <trkpt lat="44.49252" lon="5.98558">
        <ele>1039.803223</ele>
        <time>2011-02-18T12:36:41Z</time>
      </trkpt>
      <trkpt lat="44.49146" lon="5.98537">
        <ele>1039.32251</ele>
        <time>2011-02-18T12:37:05Z</time>
      </trkpt>
      <trkpt lat="44.49068" lon="5.98544">
        <ele>1040.283936</ele>
        <time>2011-02-18T12:37:26Z</time>
      </trkpt>
      <trkpt lat="44.4899" lon="5.98565">
        <ele>1040.764404</ele>
        <time>2011-02-18T12:37:47Z</time>
      </trkpt>
      <trkpt lat="44.48919" lon="5.98581">
        <ele>1041.245117</ele>
        <time>2011-02-18T12:38:06Z</time>
      </trkpt>
      <trkpt lat="44.48894" lon="5.98587">
        <ele>1041.245117</ele>
        <time>2011-02-18T12:38:12Z</time>
      </trkpt>
      <trkpt lat="44.48801" lon="5.9861">
        <ele>1040.283936</ele>
        <time>2011-02-18T12:38:33Z</time>
      </trkpt>
      <trkpt lat="44.48756" lon="5.98621">
        <ele>1039.803223</ele>
        <time>2011-02-18T12:38:43Z</time>
      </trkpt>
      <trkpt lat="44.48687" lon="5.98626">
        <ele>1039.32251</ele>
        <time>2011-02-18T12:38:58Z</time>
      </trkpt>
      <trkpt lat="44.48604" lon="5.98605">
        <ele>1039.32251</ele>
        <time>2011-02-18T12:39:17Z</time>
      </trkpt>
      <trkpt lat="44.48559" lon="5.98552">
        <ele>1040.283936</ele>
        <time>2011-02-18T12:39:31Z</time>
      </trkpt>
      <trkpt lat="44.48544" lon="5.9853">
        <ele>1040.283936</ele>
        <time>2011-02-18T12:39:36Z</time>
      </trkpt>
      <trkpt lat="44.4853" lon="5.98517">
        <ele>1040.283936</ele>
        <time>2011-02-18T12:39:40Z</time>
      </trkpt>
      <trkpt lat="44.48457" lon="5.98493">
        <ele>1041.245117</ele>
        <time>2011-02-18T12:39:59Z</time>
      </trkpt>
      <trkpt lat="44.48392" lon="5.98515">
        <ele>1041.245117</ele>
        <time>2011-02-18T12:40:17Z</time>
      </trkpt>
      <trkpt lat="44.48377" lon="5.98521">
        <ele>1041.245117</ele>
        <time>2011-02-18T12:40:21Z</time>
      </trkpt>
      <trkpt lat="44.4836" lon="5.98525">
        <ele>1040.764404</ele>
        <time>2011-02-18T12:40:25Z</time>
      </trkpt>
      <trkpt lat="44.48342" lon="5.98521">
        <ele>1041.245117</ele>
        <time>2011-02-18T12:40:29Z</time>
      </trkpt>
      <trkpt lat="44.48333" lon="5.98516">
        <ele>1040.764404</ele>
        <time>2011-02-18T12:40:31Z</time>
      </trkpt>
      <trkpt lat="44.48304" lon="5.98487">
        <ele>1036.919189</ele>
        <time>2011-02-18T12:40:37Z</time>
      </trkpt>
      <trkpt lat="44.48273" lon="5.98431">
        <ele>1034.035156</ele>
        <time>2011-02-18T12:40:44Z</time>
      </trkpt>
      <trkpt lat="44.48246" lon="5.98377">
        <ele>1031.151367</ele>
        <time>2011-02-18T12:40:50Z</time>
      </trkpt>
      <trkpt lat="44.48236" lon="5.98357">
        <ele>1029.709229</ele>
        <time>2011-02-18T12:40:52Z</time>
      </trkpt>
      <trkpt lat="44.48215" lon="5.98315">
        <ele>1026.825439</ele>
        <time>2011-02-18T12:40:56Z</time>
      </trkpt>
      <trkpt lat="44.4821" lon="5.98304">
        <ele>1026.825439</ele>
        <time>2011-02-18T12:40:57Z</time>
      </trkpt>
      <trkpt lat="44.48198" lon="5.98282">
        <ele>1025.383301</ele>
        <time>2011-02-18T12:40:59Z</time>
      </trkpt>
      <trkpt lat="44.48186" lon="5.9826">
        <ele>1023.941406</ele>
        <time>2011-02-18T12:41:01Z</time>
      </trkpt>
      <trkpt lat="44.48169" lon="5.98227">
        <ele>1022.018799</ele>
        <time>2011-02-18T12:41:04Z</time>
      </trkpt>
      <trkpt lat="44.4812" lon="5.98145">
        <ele>1018.654053</ele>
        <time>2011-02-18T12:41:12Z</time>
      </trkpt>
      <trkpt lat="44.48113" lon="5.98135">
        <ele>1018.654053</ele>
        <time>2011-02-18T12:41:13Z</time>
      </trkpt>
      <trkpt lat="44.48098" lon="5.98114">
        <ele>1017.212158</ele>
        <time>2011-02-18T12:41:15Z</time>
      </trkpt>
      <trkpt lat="44.48077" lon="5.98081">
        <ele>1015.289551</ele>
        <time>2011-02-18T12:41:18Z</time>
      </trkpt>
      <trkpt lat="44.48063" lon="5.9806">
        <ele>1013.366943</ele>
        <time>2011-02-18T12:41:20Z</time>
      </trkpt>
      <trkpt lat="44.4802" lon="5.97997">
        <ele>1009.521729</ele>
        <time>2011-02-18T12:41:26Z</time>
      </trkpt>
      <trkpt lat="44.48013" lon="5.97986">
        <ele>1009.521729</ele>
        <time>2011-02-18T12:41:27Z</time>
      </trkpt>
      <trkpt lat="44.47971" lon="5.97925">
        <ele>1005.676514</ele>
        <time>2011-02-18T12:41:33Z</time>
      </trkpt>
      <trkpt lat="44.47965" lon="5.97915">
        <ele>1005.676514</ele>
        <time>2011-02-18T12:41:34Z</time>
      </trkpt>
      <trkpt lat="44.47934" lon="5.9787">
        <ele>1005.676514</ele>
        <time>2011-02-18T12:41:39Z</time>
      </trkpt>
      <trkpt lat="44.47924" lon="5.97845">
        <ele>1005.195801</ele>
        <time>2011-02-18T12:41:43Z</time>
      </trkpt>
      <trkpt lat="44.47894" lon="5.97809">
        <ele>1006.156982</ele>
        <time>2011-02-18T12:41:48Z</time>
      </trkpt>
      <trkpt lat="44.47845" lon="5.97738">
        <ele>1007.118408</ele>
        <time>2011-02-18T12:42:03Z</time>
      </trkpt>
      <trkpt lat="44.47805" lon="5.97676">
        <ele>1009.521729</ele>
        <time>2011-02-18T12:42:23Z</time>
      </trkpt>
      <trkpt lat="44.4779" lon="5.97645">
        <ele>1010.963623</ele>
        <time>2011-02-18T12:42:32Z</time>
      </trkpt>
      <trkpt lat="44.4776" lon="5.97594">
        <ele>1013.366943</ele>
        <time>2011-02-18T12:42:48Z</time>
      </trkpt>
      <trkpt lat="44.47732" lon="5.9754">
        <ele>1013.847412</ele>
        <time>2011-02-18T12:43:06Z</time>
      </trkpt>
      <trkpt lat="44.47727" lon="5.97519">
        <ele>1015.770264</ele>
        <time>2011-02-18T12:43:13Z</time>
      </trkpt>
      <trkpt lat="44.47727" lon="5.97451">
        <ele>1016.250732</ele>
        <time>2011-02-18T12:43:31Z</time>
      </trkpt>
      <trkpt lat="44.4773" lon="5.97403">
        <ele>1017.212158</ele>
        <time>2011-02-18T12:43:41Z</time>
      </trkpt>
      <trkpt lat="44.47748" lon="5.9738">
        <ele>1016.731445</ele>
        <time>2011-02-18T12:43:47Z</time>
      </trkpt>
      <trkpt lat="44.47768" lon="5.97367">
        <ele>1015.770264</ele>
        <time>2011-02-18T12:43:52Z</time>
      </trkpt>
      <trkpt lat="44.47782" lon="5.97354">
        <ele>1015.770264</ele>
        <time>2011-02-18T12:43:56Z</time>
      </trkpt>
      <trkpt lat="44.47796" lon="5.9732">
        <ele>1015.289551</ele>
        <time>2011-02-18T12:44:03Z</time>
      </trkpt>
      <trkpt lat="44.47784" lon="5.97291">
        <ele>1015.289551</ele>
        <time>2011-02-18T12:44:09Z</time>
      </trkpt>
      <trkpt lat="44.47736" lon="5.97273">
        <ele>1015.289551</ele>
        <time>2011-02-18T12:44:20Z</time>
      </trkpt>
      <trkpt lat="44.47718" lon="5.97258">
        <ele>1014.808838</ele>
        <time>2011-02-18T12:44:24Z</time>
      </trkpt>
      <trkpt lat="44.47707" lon="5.97243">
        <ele>1014.328125</ele>
        <time>2011-02-18T12:44:27Z</time>
      </trkpt>
      <trkpt lat="44.47654" lon="5.97132">
        <ele>1014.808838</ele>
        <time>2011-02-18T12:44:48Z</time>
      </trkpt>
      <trkpt lat="44.47619" lon="5.97068">
        <ele>1014.328125</ele>
        <time>2011-02-18T12:45:00Z</time>
      </trkpt>
      <trkpt lat="44.47547" lon="5.96996">
        <ele>1013.847412</ele>
        <time>2011-02-18T12:45:19Z</time>
      </trkpt>
      <trkpt lat="44.47505" lon="5.96944">
        <ele>1014.808838</ele>
        <time>2011-02-18T12:45:31Z</time>
      </trkpt>
      <trkpt lat="44.47508" lon="5.96897">
        <ele>1014.808838</ele>
        <time>2011-02-18T12:45:40Z</time>
      </trkpt>
      <trkpt lat="44.47528" lon="5.96867">
        <ele>1012.88623</ele>
        <time>2011-02-18T12:45:45Z</time>
      </trkpt>
      <trkpt lat="44.47545" lon="5.96825">
        <ele>1010.963623</ele>
        <time>2011-02-18T12:45:50Z</time>
      </trkpt>
      <trkpt lat="44.47548" lon="5.96806">
        <ele>1010.002197</ele>
        <time>2011-02-18T12:45:52Z</time>
      </trkpt>
      <trkpt lat="44.47549" lon="5.9677">
        <ele>1009.041016</ele>
        <time>2011-02-18T12:45:56Z</time>
      </trkpt>
      <trkpt lat="44.4758" lon="5.96691">
        <ele>1005.676514</ele>
        <time>2011-02-18T12:46:05Z</time>
      </trkpt>
      <trkpt lat="44.47573" lon="5.9665">
        <ele>1006.156982</ele>
        <time>2011-02-18T12:46:11Z</time>
      </trkpt>
      <trkpt lat="44.47564" lon="5.96643">
        <ele>1006.156982</ele>
        <time>2011-02-18T12:46:13Z</time>
      </trkpt>
      <trkpt lat="44.47536" lon="5.96647">
        <ele>1005.676514</ele>
        <time>2011-02-18T12:46:19Z</time>
      </trkpt>
      <trkpt lat="44.47496" lon="5.96681">
        <ele>1007.118408</ele>
        <time>2011-02-18T12:46:31Z</time>
      </trkpt>
      <trkpt lat="44.47469" lon="5.96725">
        <ele>1007.118408</ele>
        <time>2011-02-18T12:46:42Z</time>
      </trkpt>
      <trkpt lat="44.47464" lon="5.96735">
        <ele>1007.599121</ele>
        <time>2011-02-18T12:46:44Z</time>
      </trkpt>
      <trkpt lat="44.47447" lon="5.9675">
        <ele>1007.118408</ele>
        <time>2011-02-18T12:46:48Z</time>
      </trkpt>
      <trkpt lat="44.47363" lon="5.9675">
        <ele>1002.792236</ele>
        <time>2011-02-18T12:47:02Z</time>
      </trkpt>
      <trkpt lat="44.47314" lon="5.96761">
        <ele>999.908447</ele>
        <time>2011-02-18T12:47:09Z</time>
      </trkpt>
      <trkpt lat="44.47298" lon="5.96765">
        <ele>998.466309</ele>
        <time>2011-02-18T12:47:11Z</time>
      </trkpt>
      <trkpt lat="44.47266" lon="5.96778">
        <ele>997.505127</ele>
        <time>2011-02-18T12:47:15Z</time>
      </trkpt>
      <trkpt lat="44.47233" lon="5.96773">
        <ele>998.947021</ele>
        <time>2011-02-18T12:47:20Z</time>
      </trkpt>
      <trkpt lat="44.47202" lon="5.96764">
        <ele>1000.38916</ele>
        <time>2011-02-18T12:47:27Z</time>
      </trkpt>
      <trkpt lat="44.47143" lon="5.96755">
        <ele>997.98584</ele>
        <time>2011-02-18T12:47:39Z</time>
      </trkpt>
      <trkpt lat="44.47092" lon="5.96774">
        <ele>995.58252</ele>
        <time>2011-02-18T12:47:48Z</time>
      </trkpt>
      <trkpt lat="44.46995" lon="5.96823">
        <ele>994.140625</ele>
        <time>2011-02-18T12:48:05Z</time>
      </trkpt>
      <trkpt lat="44.46952" lon="5.96841">
        <ele>993.659912</ele>
        <time>2011-02-18T12:48:13Z</time>
      </trkpt>
      <trkpt lat="44.46875" lon="5.96815">
        <ele>991.737305</ele>
        <time>2011-02-18T12:48:26Z</time>
      </trkpt>
      <trkpt lat="44.46765" lon="5.96764">
        <ele>990.29541</ele>
        <time>2011-02-18T12:48:46Z</time>
      </trkpt>
      <trkpt lat="44.46732" lon="5.96749">
        <ele>990.775879</ele>
        <time>2011-02-18T12:48:53Z</time>
      </trkpt>
      <trkpt lat="44.46643" lon="5.96709">
        <ele>990.775879</ele>
        <time>2011-02-18T12:49:14Z</time>
      </trkpt>
      <trkpt lat="44.46568" lon="5.96675">
        <ele>991.256592</ele>
        <time>2011-02-18T12:49:34Z</time>
      </trkpt>
      <trkpt lat="44.46526" lon="5.96657">
        <ele>990.775879</ele>
        <time>2011-02-18T12:49:45Z</time>
      </trkpt>
      <trkpt lat="44.46506" lon="5.96662">
        <ele>990.29541</ele>
        <time>2011-02-18T12:49:50Z</time>
      </trkpt>
      <trkpt lat="44.46498" lon="5.96667">
        <ele>990.29541</ele>
        <time>2011-02-18T12:49:52Z</time>
      </trkpt>
      <trkpt lat="44.46485" lon="5.9668">
        <ele>990.29541</ele>
        <time>2011-02-18T12:49:56Z</time>
      </trkpt>
      <trkpt lat="44.46463" lon="5.96713">
        <ele>990.29541</ele>
        <time>2011-02-18T12:50:03Z</time>
      </trkpt>
      <trkpt lat="44.46434" lon="5.96731">
        <ele>990.775879</ele>
        <time>2011-02-18T12:50:10Z</time>
      </trkpt>
      <trkpt lat="44.46349" lon="5.96759">
        <ele>991.256592</ele>
        <time>2011-02-18T12:50:30Z</time>
      </trkpt>
      <trkpt lat="44.46319" lon="5.96762">
        <ele>992.218018</ele>
        <time>2011-02-18T12:50:37Z</time>
      </trkpt>
      <trkpt lat="44.46271" lon="5.96801">
        <ele>992.69873</ele>
        <time>2011-02-18T12:50:51Z</time>
      </trkpt>
      <trkpt lat="44.4625" lon="5.96835">
        <ele>993.179199</ele>
        <time>2011-02-18T12:50:59Z</time>
      </trkpt>
      <trkpt lat="44.46234" lon="5.96874">
        <ele>993.179199</ele>
        <time>2011-02-18T12:51:08Z</time>
      </trkpt>
      <trkpt lat="44.46225" lon="5.96916">
        <ele>993.179199</ele>
        <time>2011-02-18T12:51:15Z</time>
      </trkpt>
      <trkpt lat="44.46221" lon="5.96936">
        <ele>993.179199</ele>
        <time>2011-02-18T12:51:18Z</time>
      </trkpt>
      <trkpt lat="44.46193" lon="5.96971">
        <ele>993.659912</ele>
        <time>2011-02-18T12:51:26Z</time>
      </trkpt>
      <trkpt lat="44.46177" lon="5.96977">
        <ele>993.179199</ele>
        <time>2011-02-18T12:51:30Z</time>
      </trkpt>
      <trkpt lat="44.46159" lon="5.96989">
        <ele>993.659912</ele>
        <time>2011-02-18T12:51:35Z</time>
      </trkpt>
      <trkpt lat="44.46144" lon="5.97008">
        <ele>993.659912</ele>
        <time>2011-02-18T12:51:40Z</time>
      </trkpt>
      <trkpt lat="44.4613" lon="5.97033">
        <ele>993.659912</ele>
        <time>2011-02-18T12:51:45Z</time>
      </trkpt>
      <trkpt lat="44.46123" lon="5.97064">
        <ele>993.659912</ele>
        <time>2011-02-18T12:51:50Z</time>
      </trkpt>
      <trkpt lat="44.46121" lon="5.97078">
        <ele>993.179199</ele>
        <time>2011-02-18T12:51:52Z</time>
      </trkpt>
      <trkpt lat="44.46095" lon="5.97116">
        <ele>993.659912</ele>
        <time>2011-02-18T12:52:00Z</time>
      </trkpt>
      <trkpt lat="44.46073" lon="5.9712">
        <ele>994.621094</ele>
        <time>2011-02-18T12:52:05Z</time>
      </trkpt>
      <trkpt lat="44.46053" lon="5.97131">
        <ele>995.101807</ele>
        <time>2011-02-18T12:52:10Z</time>
      </trkpt>
      <trkpt lat="44.46007" lon="5.97199">
        <ele>995.58252</ele>
        <time>2011-02-18T12:52:26Z</time>
      </trkpt>
      <trkpt lat="44.45982" lon="5.9726">
        <ele>995.58252</ele>
        <time>2011-02-18T12:52:39Z</time>
      </trkpt>
      <trkpt lat="44.45971" lon="5.97291">
        <ele>996.063232</ele>
        <time>2011-02-18T12:52:45Z</time>
      </trkpt>
      <trkpt lat="44.45954" lon="5.97334">
        <ele>996.063232</ele>
        <time>2011-02-18T12:52:52Z</time>
      </trkpt>
      <trkpt lat="44.45948" lon="5.97351">
        <ele>996.543945</ele>
        <time>2011-02-18T12:52:55Z</time>
      </trkpt>
      <trkpt lat="44.45946" lon="5.9739">
        <ele>996.543945</ele>
        <time>2011-02-18T12:53:01Z</time>
      </trkpt>
      <trkpt lat="44.4595" lon="5.97413">
        <ele>996.543945</ele>
        <time>2011-02-18T12:53:05Z</time>
      </trkpt>
      <trkpt lat="44.45955" lon="5.97423">
        <ele>996.543945</ele>
        <time>2011-02-18T12:53:07Z</time>
      </trkpt>
      <trkpt lat="44.46008" lon="5.97459">
        <ele>997.024414</ele>
        <time>2011-02-18T12:53:21Z</time>
      </trkpt>
      <trkpt lat="44.4602" lon="5.97467">
        <ele>996.543945</ele>
        <time>2011-02-18T12:53:24Z</time>
      </trkpt>
      <trkpt lat="44.46037" lon="5.97517">
        <ele>997.505127</ele>
        <time>2011-02-18T12:53:34Z</time>
      </trkpt>
      <trkpt lat="44.46034" lon="5.97528">
        <ele>997.98584</ele>
        <time>2011-02-18T12:53:36Z</time>
      </trkpt>
      <trkpt lat="44.46027" lon="5.97555">
        <ele>997.98584</ele>
        <time>2011-02-18T12:53:41Z</time>
      </trkpt>
      <trkpt lat="44.46002" lon="5.9763">
        <ele>998.466309</ele>
        <time>2011-02-18T12:53:55Z</time>
      </trkpt>
      <trkpt lat="44.45992" lon="5.97656">
        <ele>998.466309</ele>
        <time>2011-02-18T12:54:00Z</time>
      </trkpt>
      <trkpt lat="44.45986" lon="5.9767">
        <ele>998.466309</ele>
        <time>2011-02-18T12:54:03Z</time>
      </trkpt>
      <trkpt lat="44.45966" lon="5.97688">
        <ele>999.427734</ele>
        <time>2011-02-18T12:54:08Z</time>
      </trkpt>
      <trkpt lat="44.45944" lon="5.97689">
        <ele>999.908447</ele>
        <time>2011-02-18T12:54:13Z</time>
      </trkpt>
      <trkpt lat="44.45928" lon="5.97697">
        <ele>999.908447</ele>
        <time>2011-02-18T12:54:17Z</time>
      </trkpt>
      <trkpt lat="44.45891" lon="5.97748">
        <ele>999.427734</ele>
        <time>2011-02-18T12:54:29Z</time>
      </trkpt>
      <trkpt lat="44.4588" lon="5.97776">
        <ele>1000.38916</ele>
        <time>2011-02-18T12:54:34Z</time>
      </trkpt>
      <trkpt lat="44.45879" lon="5.97806">
        <ele>999.908447</ele>
        <time>2011-02-18T12:54:39Z</time>
      </trkpt>
      <trkpt lat="44.45881" lon="5.97836">
        <ele>999.908447</ele>
        <time>2011-02-18T12:54:44Z</time>
      </trkpt>
      <trkpt lat="44.4588" lon="5.97848">
        <ele>1000.38916</ele>
        <time>2011-02-18T12:54:46Z</time>
      </trkpt>
      <trkpt lat="44.45876" lon="5.9787">
        <ele>1000.869629</ele>
        <time>2011-02-18T12:54:50Z</time>
      </trkpt>
      <trkpt lat="44.45834" lon="5.97957">
        <ele>1002.311523</ele>
        <time>2011-02-18T12:55:10Z</time>
      </trkpt>
      <trkpt lat="44.45798" lon="5.98032">
        <ele>1003.272949</ele>
        <time>2011-02-18T12:55:29Z</time>
      </trkpt>
      <trkpt lat="44.45758" lon="5.98076">
        <ele>1004.715088</ele>
        <time>2011-02-18T12:55:46Z</time>
      </trkpt>
      <trkpt lat="44.4572" lon="5.98107">
        <ele>1007.118408</ele>
        <time>2011-02-18T12:56:03Z</time>
      </trkpt>
      <trkpt lat="44.4568" lon="5.9814">
        <ele>1010.48291</ele>
        <time>2011-02-18T12:56:24Z</time>
      </trkpt>
      <trkpt lat="44.45637" lon="5.98173">
        <ele>1012.88623</ele>
        <time>2011-02-18T12:56:47Z</time>
      </trkpt>
      <trkpt lat="44.45601" lon="5.98182">
        <ele>1015.289551</ele>
        <time>2011-02-18T12:57:05Z</time>
      </trkpt>
      <trkpt lat="44.45563" lon="5.98192">
        <ele>1018.654053</ele>
        <time>2011-02-18T12:57:24Z</time>
      </trkpt>
      <trkpt lat="44.45526" lon="5.98202">
        <ele>1021.538086</ele>
        <time>2011-02-18T12:57:43Z</time>
      </trkpt>
      <trkpt lat="44.45488" lon="5.98213">
        <ele>1024.902832</ele>
        <time>2011-02-18T12:58:02Z</time>
      </trkpt>
      <trkpt lat="44.45455" lon="5.98225">
        <ele>1027.786621</ele>
        <time>2011-02-18T12:58:21Z</time>
      </trkpt>
      <trkpt lat="44.45418" lon="5.98237">
        <ele>1031.631836</ele>
        <time>2011-02-18T12:58:40Z</time>
      </trkpt>
      <trkpt lat="44.45385" lon="5.98242">
        <ele>1033.554443</ele>
        <time>2011-02-18T12:58:58Z</time>
      </trkpt>
      <trkpt lat="44.45348" lon="5.98242">
        <ele>1036.438721</ele>
        <time>2011-02-18T12:59:18Z</time>
      </trkpt>
      <trkpt lat="44.45312" lon="5.98231">
        <ele>1039.803223</ele>
        <time>2011-02-18T12:59:37Z</time>
      </trkpt>
      <trkpt lat="44.45276" lon="5.9822">
        <ele>1042.687256</ele>
        <time>2011-02-18T12:59:56Z</time>
      </trkpt>
      <trkpt lat="44.45242" lon="5.98197">
        <ele>1044.12915</ele>
        <time>2011-02-18T13:00:15Z</time>
      </trkpt>
      <trkpt lat="44.45209" lon="5.98174">
        <ele>1043.167725</ele>
        <time>2011-02-18T13:00:30Z</time>
      </trkpt>
      <trkpt lat="44.45191" lon="5.98178">
        <ele>1042.206543</ele>
        <time>2011-02-18T13:00:37Z</time>
      </trkpt>
      <trkpt lat="44.45182" lon="5.98189">
        <ele>1041.245117</ele>
        <time>2011-02-18T13:00:40Z</time>
      </trkpt>
      <trkpt lat="44.4516" lon="5.98234">
        <ele>1036.438721</ele>
        <time>2011-02-18T13:00:47Z</time>
      </trkpt>
      <trkpt lat="44.45151" lon="5.98249">
        <ele>1035.477051</ele>
        <time>2011-02-18T13:00:49Z</time>
      </trkpt>
      <trkpt lat="44.4514" lon="5.98263">
        <ele>1034.035156</ele>
        <time>2011-02-18T13:00:51Z</time>
      </trkpt>
      <trkpt lat="44.4513" lon="5.98274">
        <ele>1032.593262</ele>
        <time>2011-02-18T13:00:53Z</time>
      </trkpt>
      <trkpt lat="44.45107" lon="5.98292">
        <ele>1029.228516</ele>
        <time>2011-02-18T13:00:58Z</time>
      </trkpt>
      <trkpt lat="44.45091" lon="5.98299">
        <ele>1027.786621</ele>
        <time>2011-02-18T13:01:01Z</time>
      </trkpt>
      <trkpt lat="44.45071" lon="5.98305">
        <ele>1024.422119</ele>
        <time>2011-02-18T13:01:04Z</time>
      </trkpt>
      <trkpt lat="44.45063" lon="5.98307">
        <ele>1024.422119</ele>
        <time>2011-02-18T13:01:05Z</time>
      </trkpt>
      <trkpt lat="44.45046" lon="5.98309">
        <ele>1021.538086</ele>
        <time>2011-02-18T13:01:07Z</time>
      </trkpt>
      <trkpt lat="44.45027" lon="5.98311">
        <ele>1019.615479</ele>
        <time>2011-02-18T13:01:09Z</time>
      </trkpt>
      <trkpt lat="44.45009" lon="5.98314">
        <ele>1016.250732</ele>
        <time>2011-02-18T13:01:11Z</time>
      </trkpt>
      <trkpt lat="44.45" lon="5.98315">
        <ele>1016.250732</ele>
        <time>2011-02-18T13:01:12Z</time>
      </trkpt>
      <trkpt lat="44.44984" lon="5.98317">
        <ele>1014.808838</ele>
        <time>2011-02-18T13:01:14Z</time>
      </trkpt>
      <trkpt lat="44.4497" lon="5.98319">
        <ele>1012.88623</ele>
        <time>2011-02-18T13:01:16Z</time>
      </trkpt>
      <trkpt lat="44.44949" lon="5.98322">
        <ele>1010.963623</ele>
        <time>2011-02-18T13:01:19Z</time>
      </trkpt>
      <trkpt lat="44.44934" lon="5.98324">
        <ele>1009.041016</ele>
        <time>2011-02-18T13:01:21Z</time>
      </trkpt>
      <trkpt lat="44.44927" lon="5.98326">
        <ele>1008.079834</ele>
        <time>2011-02-18T13:01:22Z</time>
      </trkpt>
      <trkpt lat="44.44908" lon="5.98336">
        <ele>1006.156982</ele>
        <time>2011-02-18T13:01:25Z</time>
      </trkpt>
      <trkpt lat="44.4489" lon="5.98381">
        <ele>1002.792236</ele>
        <time>2011-02-18T13:01:31Z</time>
      </trkpt>
      <trkpt lat="44.4489" lon="5.98391">
        <ele>1002.311523</ele>
        <time>2011-02-18T13:01:32Z</time>
      </trkpt>
      <trkpt lat="44.44888" lon="5.98422">
        <ele>1000.869629</ele>
        <time>2011-02-18T13:01:35Z</time>
      </trkpt>
      <trkpt lat="44.44877" lon="5.98456">
        <ele>998.947021</ele>
        <time>2011-02-18T13:01:39Z</time>
      </trkpt>
      <trkpt lat="44.44889" lon="5.98494">
        <ele>997.024414</ele>
        <time>2011-02-18T13:01:44Z</time>
      </trkpt>
      <trkpt lat="44.44892" lon="5.98501">
        <ele>995.101807</ele>
        <time>2011-02-18T13:01:45Z</time>
      </trkpt>
      <trkpt lat="44.44892" lon="5.98535">
        <ele>992.69873</ele>
        <time>2011-02-18T13:01:49Z</time>
      </trkpt>
      <trkpt lat="44.44866" lon="5.98555">
        <ele>989.814697</ele>
        <time>2011-02-18T13:01:53Z</time>
      </trkpt>
      <trkpt lat="44.4485" lon="5.98557">
        <ele>987.891846</ele>
        <time>2011-02-18T13:01:55Z</time>
      </trkpt>
      <trkpt lat="44.44826" lon="5.9856">
        <ele>985.969238</ele>
        <time>2011-02-18T13:01:58Z</time>
      </trkpt>
      <trkpt lat="44.44809" lon="5.98558">
        <ele>984.046631</ele>
        <time>2011-02-18T13:02:00Z</time>
      </trkpt>
      <trkpt lat="44.44793" lon="5.9856">
        <ele>980.201416</ele>
        <time>2011-02-18T13:02:02Z</time>
      </trkpt>
      <trkpt lat="44.44784" lon="5.98559">
        <ele>980.201416</ele>
        <time>2011-02-18T13:02:03Z</time>
      </trkpt>
      <trkpt lat="44.44767" lon="5.98558">
        <ele>977.798096</ele>
        <time>2011-02-18T13:02:05Z</time>
      </trkpt>
      <trkpt lat="44.44748" lon="5.98557">
        <ele>976.356201</ele>
        <time>2011-02-18T13:02:07Z</time>
      </trkpt>
      <trkpt lat="44.4473" lon="5.98555">
        <ele>971.549316</ele>
        <time>2011-02-18T13:02:09Z</time>
      </trkpt>
      <trkpt lat="44.44721" lon="5.98554">
        <ele>971.549316</ele>
        <time>2011-02-18T13:02:10Z</time>
      </trkpt>
      <trkpt lat="44.44703" lon="5.98555">
        <ele>969.626953</ele>
        <time>2011-02-18T13:02:12Z</time>
      </trkpt>
      <trkpt lat="44.44686" lon="5.98558">
        <ele>967.704102</ele>
        <time>2011-02-18T13:02:14Z</time>
      </trkpt>
      <trkpt lat="44.4467" lon="5.98562">
        <ele>965.781738</ele>
        <time>2011-02-18T13:02:16Z</time>
      </trkpt>
      <trkpt lat="44.44635" lon="5.98579">
        <ele>963.378418</ele>
        <time>2011-02-18T13:02:21Z</time>
      </trkpt>
      <trkpt lat="44.44606" lon="5.98596">
        <ele>960.013672</ele>
        <time>2011-02-18T13:02:25Z</time>
      </trkpt>
      <trkpt lat="44.44598" lon="5.98599">
        <ele>960.013672</ele>
        <time>2011-02-18T13:02:26Z</time>
      </trkpt>
      <trkpt lat="44.44578" lon="5.9861">
        <ele>958.571777</ele>
        <time>2011-02-18T13:02:29Z</time>
      </trkpt>
      <trkpt lat="44.4455" lon="5.98615">
        <ele>956.64917</ele>
        <time>2011-02-18T13:02:33Z</time>
      </trkpt>
      <trkpt lat="44.44535" lon="5.98621">
        <ele>955.207031</ele>
        <time>2011-02-18T13:02:35Z</time>
      </trkpt>
      <trkpt lat="44.44519" lon="5.98624">
        <ele>952.803711</ele>
        <time>2011-02-18T13:02:37Z</time>
      </trkpt>
      <trkpt lat="44.44502" lon="5.98629">
        <ele>951.361816</ele>
        <time>2011-02-18T13:02:39Z</time>
      </trkpt>
      <trkpt lat="44.44466" lon="5.98648">
        <ele>950.400635</ele>
        <time>2011-02-18T13:02:44Z</time>
      </trkpt>
      <trkpt lat="44.44439" lon="5.9867">
        <ele>947.035889</ele>
        <time>2011-02-18T13:02:48Z</time>
      </trkpt>
      <trkpt lat="44.44397" lon="5.98681">
        <ele>944.1521</ele>
        <time>2011-02-18T13:02:54Z</time>
      </trkpt>
      <trkpt lat="44.44382" lon="5.98682">
        <ele>943.190674</ele>
        <time>2011-02-18T13:02:56Z</time>
      </trkpt>
      <trkpt lat="44.44355" lon="5.9868">
        <ele>940.787354</ele>
        <time>2011-02-18T13:03:00Z</time>
      </trkpt>
      <trkpt lat="44.44331" lon="5.98677">
        <ele>937.90332</ele>
        <time>2011-02-18T13:03:03Z</time>
      </trkpt>
      <trkpt lat="44.44297" lon="5.98671">
        <ele>935.019531</ele>
        <time>2011-02-18T13:03:07Z</time>
      </trkpt>
      <trkpt lat="44.44281" lon="5.98669">
        <ele>933.09668</ele>
        <time>2011-02-18T13:03:09Z</time>
      </trkpt>
      <trkpt lat="44.44259" lon="5.98662">
        <ele>932.135498</ele>
        <time>2011-02-18T13:03:12Z</time>
      </trkpt>
      <trkpt lat="44.44232" lon="5.98657">
        <ele>928.770996</ele>
        <time>2011-02-18T13:03:16Z</time>
      </trkpt>
      <trkpt lat="44.44212" lon="5.98664">
        <ele>927.329102</ele>
        <time>2011-02-18T13:03:19Z</time>
      </trkpt>
      <trkpt lat="44.44201" lon="5.98674">
        <ele>926.848389</ele>
        <time>2011-02-18T13:03:21Z</time>
      </trkpt>
      <trkpt lat="44.44178" lon="5.98679">
        <ele>924.445068</ele>
        <time>2011-02-18T13:03:24Z</time>
      </trkpt>
      <trkpt lat="44.44165" lon="5.98676">
        <ele>923.483643</ele>
        <time>2011-02-18T13:03:26Z</time>
      </trkpt>
      <trkpt lat="44.44138" lon="5.98665">
        <ele>920.118896</ele>
        <time>2011-02-18T13:03:30Z</time>
      </trkpt>
      <trkpt lat="44.44132" lon="5.98659">
        <ele>920.118896</ele>
        <time>2011-02-18T13:03:31Z</time>
      </trkpt>
      <trkpt lat="44.44114" lon="5.98631">
        <ele>917.715576</ele>
        <time>2011-02-18T13:03:35Z</time>
      </trkpt>
      <trkpt lat="44.44086" lon="5.98579">
        <ele>914.351074</ele>
        <time>2011-02-18T13:03:45Z</time>
      </trkpt>
      <trkpt lat="44.44078" lon="5.9857">
        <ele>913.389893</ele>
        <time>2011-02-18T13:03:47Z</time>
      </trkpt>
      <trkpt lat="44.4406" lon="5.98555">
        <ele>911.947998</ele>
        <time>2011-02-18T13:03:51Z</time>
      </trkpt>
      <trkpt lat="44.44044" lon="5.98543">
        <ele>910.025146</ele>
        <time>2011-02-18T13:03:54Z</time>
      </trkpt>
      <trkpt lat="44.44015" lon="5.98526">
        <ele>906.179688</ele>
        <time>2011-02-18T13:03:59Z</time>
      </trkpt>
      <trkpt lat="44.44002" lon="5.98519">
        <ele>905.218506</ele>
        <time>2011-02-18T13:04:01Z</time>
      </trkpt>
      <trkpt lat="44.43975" lon="5.98503">
        <ele>902.815186</ele>
        <time>2011-02-18T13:04:05Z</time>
      </trkpt>
      <trkpt lat="44.43953" lon="5.9849">
        <ele>900.412109</ele>
        <time>2011-02-18T13:04:08Z</time>
      </trkpt>
      <trkpt lat="44.4394" lon="5.98481">
        <ele>899.450684</ele>
        <time>2011-02-18T13:04:10Z</time>
      </trkpt>
      <trkpt lat="44.43896" lon="5.98446">
        <ele>895.605469</ele>
        <time>2011-02-18T13:04:18Z</time>
      </trkpt>
      <trkpt lat="44.43874" lon="5.98431">
        <ele>894.163574</ele>
        <time>2011-02-18T13:04:22Z</time>
      </trkpt>
      <trkpt lat="44.43869" lon="5.9843">
        <ele>893.202148</ele>
        <time>2011-02-18T13:04:23Z</time>
      </trkpt>
      <trkpt lat="44.4384" lon="5.98442">
        <ele>889.837402</ele>
        <time>2011-02-18T13:04:30Z</time>
      </trkpt>
      <trkpt lat="44.43835" lon="5.98447">
        <ele>889.837402</ele>
        <time>2011-02-18T13:04:31Z</time>
      </trkpt>
      <trkpt lat="44.43827" lon="5.98458">
        <ele>888.395508</ele>
        <time>2011-02-18T13:04:33Z</time>
      </trkpt>
      <trkpt lat="44.43803" lon="5.98459">
        <ele>885.031006</ele>
        <time>2011-02-18T13:04:37Z</time>
      </trkpt>
      <trkpt lat="44.43797" lon="5.98454">
        <ele>885.031006</ele>
        <time>2011-02-18T13:04:38Z</time>
      </trkpt>
      <trkpt lat="44.43786" lon="5.98448">
        <ele>883.588867</ele>
        <time>2011-02-18T13:04:40Z</time>
      </trkpt>
      <trkpt lat="44.43768" lon="5.9844">
        <ele>883.108154</ele>
        <time>2011-02-18T13:04:43Z</time>
      </trkpt>
      <trkpt lat="44.43757" lon="5.9843">
        <ele>881.66626</ele>
        <time>2011-02-18T13:04:45Z</time>
      </trkpt>
      <trkpt lat="44.43737" lon="5.98408">
        <ele>879.743652</ele>
        <time>2011-02-18T13:04:49Z</time>
      </trkpt>
      <trkpt lat="44.43723" lon="5.98391">
        <ele>877.821045</ele>
        <time>2011-02-18T13:04:52Z</time>
      </trkpt>
      <trkpt lat="44.43704" lon="5.98372">
        <ele>876.37915</ele>
        <time>2011-02-18T13:04:56Z</time>
      </trkpt>
      <trkpt lat="44.43667" lon="5.98359">
        <ele>872.533691</ele>
        <time>2011-02-18T13:05:07Z</time>
      </trkpt>
      <trkpt lat="44.43663" lon="5.98361">
        <ele>872.533691</ele>
        <time>2011-02-18T13:05:18Z</time>
      </trkpt>
      <trkpt lat="44.43663" lon="5.98361">
        <ele>873.014404</ele>
        <time>2011-02-18T13:07:27Z</time>
      </trkpt>
      <trkpt lat="44.43663" lon="5.98361">
        <ele>873.495117</ele>
        <time>2011-02-18T13:08:02Z</time>
      </trkpt>
      <trkpt lat="44.43663" lon="5.98361">
        <ele>874.937012</ele>
        <time>2011-02-18T13:10:33Z</time>
      </trkpt>
      <trkpt lat="44.4366" lon="5.98363">
        <ele>873.975586</ele>
        <time>2011-02-18T13:10:37Z</time>
      </trkpt>
      <trkpt lat="44.43637" lon="5.9839">
        <ele>871.091797</ele>
        <time>2011-02-18T13:10:47Z</time>
      </trkpt>
      <trkpt lat="44.43628" lon="5.98402">
        <ele>869.169189</ele>
        <time>2011-02-18T13:10:52Z</time>
      </trkpt>
      <trkpt lat="44.43592" lon="5.98448">
        <ele>864.362549</ele>
        <time>2011-02-18T13:11:00Z</time>
      </trkpt>
      <trkpt lat="44.43577" lon="5.98461">
        <ele>861.47876</ele>
        <time>2011-02-18T13:11:02Z</time>
      </trkpt>
      <trkpt lat="44.43564" lon="5.98471">
        <ele>860.036621</ele>
        <time>2011-02-18T13:11:04Z</time>
      </trkpt>
      <trkpt lat="44.43542" lon="5.98488">
        <ele>857.633301</ele>
        <time>2011-02-18T13:11:08Z</time>
      </trkpt>
      <trkpt lat="44.43526" lon="5.985">
        <ele>856.671875</ele>
        <time>2011-02-18T13:11:11Z</time>
      </trkpt>
      <trkpt lat="44.43495" lon="5.98496">
        <ele>853.788086</ele>
        <time>2011-02-18T13:11:18Z</time>
      </trkpt>
      <trkpt lat="44.43494" lon="5.98459">
        <ele>851.865479</ele>
        <time>2011-02-18T13:11:23Z</time>
      </trkpt>
      <trkpt lat="44.435" lon="5.98416">
        <ele>848.981445</ele>
        <time>2011-02-18T13:11:27Z</time>
      </trkpt>
      <trkpt lat="44.43503" lon="5.98392">
        <ele>847.539551</ele>
        <time>2011-02-18T13:11:29Z</time>
      </trkpt>
      <trkpt lat="44.43507" lon="5.9836">
        <ele>845.13623</ele>
        <time>2011-02-18T13:11:32Z</time>
      </trkpt>
      <trkpt lat="44.43507" lon="5.98266">
        <ele>843.213379</ele>
        <time>2011-02-18T13:11:43Z</time>
      </trkpt>
      <trkpt lat="44.435" lon="5.98208">
        <ele>841.290771</ele>
        <time>2011-02-18T13:11:54Z</time>
      </trkpt>
      <trkpt lat="44.4351" lon="5.98172">
        <ele>839.368164</ele>
        <time>2011-02-18T13:12:00Z</time>
      </trkpt>
      <trkpt lat="44.43519" lon="5.98149">
        <ele>837.92627</ele>
        <time>2011-02-18T13:12:04Z</time>
      </trkpt>
      <trkpt lat="44.43522" lon="5.9814">
        <ele>836.484375</ele>
        <time>2011-02-18T13:12:06Z</time>
      </trkpt>
      <trkpt lat="44.43523" lon="5.98137">
        <ele>834.081055</ele>
        <time>2011-02-18T13:12:11Z</time>
      </trkpt>
      <trkpt lat="44.43504" lon="5.98132">
        <ele>833.600342</ele>
        <time>2011-02-18T13:12:16Z</time>
      </trkpt>
      <trkpt lat="44.43495" lon="5.98135">
        <ele>832.158447</ele>
        <time>2011-02-18T13:12:18Z</time>
      </trkpt>
      <trkpt lat="44.43486" lon="5.98141">
        <ele>831.197266</ele>
        <time>2011-02-18T13:12:20Z</time>
      </trkpt>
      <trkpt lat="44.43471" lon="5.98151">
        <ele>829.274414</ele>
        <time>2011-02-18T13:12:23Z</time>
      </trkpt>
      <trkpt lat="44.43454" lon="5.98164">
        <ele>827.832275</ele>
        <time>2011-02-18T13:12:27Z</time>
      </trkpt>
      <trkpt lat="44.43441" lon="5.98183">
        <ele>826.390381</ele>
        <time>2011-02-18T13:12:30Z</time>
      </trkpt>
      <trkpt lat="44.43432" lon="5.98197">
        <ele>824.948486</ele>
        <time>2011-02-18T13:12:32Z</time>
      </trkpt>
      <trkpt lat="44.43402" lon="5.98231">
        <ele>822.545166</ele>
        <time>2011-02-18T13:12:37Z</time>
      </trkpt>
      <trkpt lat="44.43389" lon="5.98241">
        <ele>822.064453</ele>
        <time>2011-02-18T13:12:39Z</time>
      </trkpt>
      <trkpt lat="44.43339" lon="5.98277">
        <ele>820.141846</ele>
        <time>2011-02-18T13:12:47Z</time>
      </trkpt>
      <trkpt lat="44.4332" lon="5.98279">
        <ele>820.141846</ele>
        <time>2011-02-18T13:12:51Z</time>
      </trkpt>
      <trkpt lat="44.4329" lon="5.9827">
        <ele>817.258057</ele>
        <time>2011-02-18T13:12:56Z</time>
      </trkpt>
      <trkpt lat="44.43271" lon="5.98255">
        <ele>815.816162</ele>
        <time>2011-02-18T13:13:00Z</time>
      </trkpt>
      <trkpt lat="44.43263" lon="5.98243">
        <ele>815.335449</ele>
        <time>2011-02-18T13:13:11Z</time>
      </trkpt>
      <trkpt lat="44.43233" lon="5.9821">
        <ele>811.48999</ele>
        <time>2011-02-18T13:13:21Z</time>
      </trkpt>
      <trkpt lat="44.43223" lon="5.98202">
        <ele>811.009277</ele>
        <time>2011-02-18T13:13:23Z</time>
      </trkpt>
      <trkpt lat="44.43174" lon="5.98131">
        <ele>807.164063</ele>
        <time>2011-02-18T13:13:33Z</time>
      </trkpt>
      <trkpt lat="44.43164" lon="5.98114">
        <ele>806.68335</ele>
        <time>2011-02-18T13:13:35Z</time>
      </trkpt>
      <trkpt lat="44.43125" lon="5.9803">
        <ele>803.799561</ele>
        <time>2011-02-18T13:13:44Z</time>
      </trkpt>
      <trkpt lat="44.43117" lon="5.98009">
        <ele>800.915527</ele>
        <time>2011-02-18T13:13:46Z</time>
      </trkpt>
      <trkpt lat="44.431" lon="5.97954">
        <ele>799.473633</ele>
        <time>2011-02-18T13:13:51Z</time>
      </trkpt>
      <trkpt lat="44.43061" lon="5.97806">
        <ele>797.070313</ele>
        <time>2011-02-18T13:14:06Z</time>
      </trkpt>
      <trkpt lat="44.43059" lon="5.97787">
        <ele>797.070313</ele>
        <time>2011-02-18T13:14:09Z</time>
      </trkpt>
      <trkpt lat="44.43043" lon="5.97769">
        <ele>794.666748</ele>
        <time>2011-02-18T13:14:15Z</time>
      </trkpt>
      <trkpt lat="44.4299" lon="5.97783">
        <ele>792.263672</ele>
        <time>2011-02-18T13:14:26Z</time>
      </trkpt>
      <trkpt lat="44.42979" lon="5.97786">
        <ele>791.302246</ele>
        <time>2011-02-18T13:14:28Z</time>
      </trkpt>
      <trkpt lat="44.42964" lon="5.97807">
        <ele>789.860352</ele>
        <time>2011-02-18T13:14:32Z</time>
      </trkpt>
      <trkpt lat="44.42962" lon="5.97815">
        <ele>788.89917</ele>
        <time>2011-02-18T13:14:33Z</time>
      </trkpt>
      <trkpt lat="44.4296" lon="5.97831">
        <ele>788.89917</ele>
        <time>2011-02-18T13:14:35Z</time>
      </trkpt>
      <trkpt lat="44.42948" lon="5.97865">
        <ele>786.976318</ele>
        <time>2011-02-18T13:14:39Z</time>
      </trkpt>
      <trkpt lat="44.4291" lon="5.97949">
        <ele>783.611816</ele>
        <time>2011-02-18T13:14:50Z</time>
      </trkpt>
      <trkpt lat="44.42901" lon="5.97994">
        <ele>781.20874</ele>
        <time>2011-02-18T13:14:55Z</time>
      </trkpt>
      <trkpt lat="44.42908" lon="5.98009">
        <ele>781.20874</ele>
        <time>2011-02-18T13:14:57Z</time>
      </trkpt>
      <trkpt lat="44.42958" lon="5.98135">
        <ele>777.84375</ele>
        <time>2011-02-18T13:15:10Z</time>
      </trkpt>
      <trkpt lat="44.42961" lon="5.98149">
        <ele>776.882568</ele>
        <time>2011-02-18T13:15:12Z</time>
      </trkpt>
      <trkpt lat="44.42965" lon="5.98169">
        <ele>775.44043</ele>
        <time>2011-02-18T13:15:14Z</time>
      </trkpt>
      <trkpt lat="44.42979" lon="5.98228">
        <ele>771.595215</ele>
        <time>2011-02-18T13:15:20Z</time>
      </trkpt>
      <trkpt lat="44.42974" lon="5.98294">
        <ele>770.15332</ele>
        <time>2011-02-18T13:15:26Z</time>
      </trkpt>
      <trkpt lat="44.42974" lon="5.98298">
        <ele>769.672852</ele>
        <time>2011-02-18T13:15:27Z</time>
      </trkpt>
      <trkpt lat="44.42903" lon="5.98337">
        <ele>768.230713</ele>
        <time>2011-02-18T13:15:35Z</time>
      </trkpt>
      <trkpt lat="44.42875" lon="5.98339">
        <ele>763.904541</ele>
        <time>2011-02-18T13:15:39Z</time>
      </trkpt>
      <trkpt lat="44.42821" lon="5.98332">
        <ele>761.501465</ele>
        <time>2011-02-18T13:15:46Z</time>
      </trkpt>
      <trkpt lat="44.42798" lon="5.98326">
        <ele>759.098145</ele>
        <time>2011-02-18T13:15:49Z</time>
      </trkpt>
      <trkpt lat="44.4279" lon="5.98325">
        <ele>759.578857</ele>
        <time>2011-02-18T13:15:50Z</time>
      </trkpt>
      <trkpt lat="44.42759" lon="5.98334">
        <ele>757.65625</ele>
        <time>2011-02-18T13:15:54Z</time>
      </trkpt>
      <trkpt lat="44.42744" lon="5.98333">
        <ele>757.175537</ele>
        <time>2011-02-18T13:15:56Z</time>
      </trkpt>
      <trkpt lat="44.42693" lon="5.98309">
        <ele>753.330322</ele>
        <time>2011-02-18T13:16:04Z</time>
      </trkpt>
      <trkpt lat="44.42688" lon="5.98306">
        <ele>753.330322</ele>
        <time>2011-02-18T13:16:05Z</time>
      </trkpt>
      <trkpt lat="44.4268" lon="5.983">
        <ele>753.330322</ele>
        <time>2011-02-18T13:16:07Z</time>
      </trkpt>
      <trkpt lat="44.42674" lon="5.98315">
        <ele>752.368896</ele>
        <time>2011-02-18T13:16:14Z</time>
      </trkpt>
      <trkpt lat="44.4268" lon="5.98319">
        <ele>751.407715</ele>
        <time>2011-02-18T13:16:16Z</time>
      </trkpt>
      <trkpt lat="44.4271" lon="5.98335">
        <ele>749.004395</ele>
        <time>2011-02-18T13:16:22Z</time>
      </trkpt>
      <trkpt lat="44.42722" lon="5.98346">
        <ele>747.081543</ele>
        <time>2011-02-18T13:16:24Z</time>
      </trkpt>
      <trkpt lat="44.42739" lon="5.98368">
        <ele>745.158936</ele>
        <time>2011-02-18T13:16:27Z</time>
      </trkpt>
      <trkpt lat="44.42762" lon="5.98386">
        <ele>744.197754</ele>
        <time>2011-02-18T13:16:30Z</time>
      </trkpt>
      <trkpt lat="44.42782" lon="5.98408">
        <ele>740.352539</ele>
        <time>2011-02-18T13:16:33Z</time>
      </trkpt>
      <trkpt lat="44.42789" lon="5.98417">
        <ele>739.391113</ele>
        <time>2011-02-18T13:16:34Z</time>
      </trkpt>
      <trkpt lat="44.42812" lon="5.98432">
        <ele>737.949219</ele>
        <time>2011-02-18T13:16:37Z</time>
      </trkpt>
      <trkpt lat="44.42836" lon="5.98447">
        <ele>736.026611</ele>
        <time>2011-02-18T13:16:40Z</time>
      </trkpt>
      <trkpt lat="44.42886" lon="5.98479">
        <ele>733.142578</ele>
        <time>2011-02-18T13:16:47Z</time>
      </trkpt>
      <trkpt lat="44.42932" lon="5.98496">
        <ele>729.297119</ele>
        <time>2011-02-18T13:16:53Z</time>
      </trkpt>
      <trkpt lat="44.4294" lon="5.98499">
        <ele>729.297119</ele>
        <time>2011-02-18T13:16:54Z</time>
      </trkpt>
      <trkpt lat="44.42962" lon="5.9852">
        <ele>729.777832</ele>
        <time>2011-02-18T13:16:58Z</time>
      </trkpt>
      <trkpt lat="44.42976" lon="5.9854">
        <ele>725.932617</ele>
        <time>2011-02-18T13:17:01Z</time>
      </trkpt>
      <trkpt lat="44.42984" lon="5.98553">
        <ele>727.374756</ele>
        <time>2011-02-18T13:17:03Z</time>
      </trkpt>
      <trkpt lat="44.42985" lon="5.98606">
        <ele>724.490723</ele>
        <time>2011-02-18T13:17:10Z</time>
      </trkpt>
      <trkpt lat="44.42952" lon="5.98622">
        <ele>722.087402</ele>
        <time>2011-02-18T13:17:15Z</time>
      </trkpt>
      <trkpt lat="44.42936" lon="5.98626">
        <ele>720.164795</ele>
        <time>2011-02-18T13:17:17Z</time>
      </trkpt>
      <trkpt lat="44.42882" lon="5.98643">
        <ele>718.242188</ele>
        <time>2011-02-18T13:17:24Z</time>
      </trkpt>
      <trkpt lat="44.42854" lon="5.98656">
        <ele>716.31958</ele>
        <time>2011-02-18T13:17:28Z</time>
      </trkpt>
      <trkpt lat="44.42838" lon="5.9867">
        <ele>714.877441</ele>
        <time>2011-02-18T13:17:31Z</time>
      </trkpt>
      <trkpt lat="44.42813" lon="5.98717">
        <ele>710.551514</ele>
        <time>2011-02-18T13:17:37Z</time>
      </trkpt>
      <trkpt lat="44.42804" lon="5.98749">
        <ele>708.628906</ele>
        <time>2011-02-18T13:17:40Z</time>
      </trkpt>
      <trkpt lat="44.42793" lon="5.98797">
        <ele>707.667725</ele>
        <time>2011-02-18T13:17:45Z</time>
      </trkpt>
      <trkpt lat="44.42792" lon="5.98814">
        <ele>706.706299</ele>
        <time>2011-02-18T13:17:47Z</time>
      </trkpt>
      <trkpt lat="44.42794" lon="5.98876">
        <ele>702.380371</ele>
        <time>2011-02-18T13:17:53Z</time>
      </trkpt>
      <trkpt lat="44.42795" lon="5.98888">
        <ele>702.380371</ele>
        <time>2011-02-18T13:17:54Z</time>
      </trkpt>
      <trkpt lat="44.42796" lon="5.98939">
        <ele>699.496338</ele>
        <time>2011-02-18T13:17:58Z</time>
      </trkpt>
      <trkpt lat="44.42789" lon="5.98975">
        <ele>697.093018</ele>
        <time>2011-02-18T13:18:01Z</time>
      </trkpt>
      <trkpt lat="44.42787" lon="5.98996">
        <ele>696.131836</ele>
        <time>2011-02-18T13:18:03Z</time>
      </trkpt>
      <trkpt lat="44.42794" lon="5.99044">
        <ele>692.767334</ele>
        <time>2011-02-18T13:18:08Z</time>
      </trkpt>
      <trkpt lat="44.42795" lon="5.99052">
        <ele>692.286621</ele>
        <time>2011-02-18T13:18:09Z</time>
      </trkpt>
      <trkpt lat="44.4278" lon="5.99071">
        <ele>689.402588</ele>
        <time>2011-02-18T13:18:15Z</time>
      </trkpt>
      <trkpt lat="44.42769" lon="5.9906">
        <ele>687.960693</ele>
        <time>2011-02-18T13:18:17Z</time>
      </trkpt>
      <trkpt lat="44.42763" lon="5.99041">
        <ele>686.038086</ele>
        <time>2011-02-18T13:18:19Z</time>
      </trkpt>
      <trkpt lat="44.42756" lon="5.9901">
        <ele>683.634521</ele>
        <time>2011-02-18T13:18:22Z</time>
      </trkpt>
      <trkpt lat="44.42751" lon="5.98988">
        <ele>682.192627</ele>
        <time>2011-02-18T13:18:24Z</time>
      </trkpt>
      <trkpt lat="44.42723" lon="5.98958">
        <ele>678.347412</ele>
        <time>2011-02-18T13:18:29Z</time>
      </trkpt>
      <trkpt lat="44.42707" lon="5.98953">
        <ele>677.866699</ele>
        <time>2011-02-18T13:18:31Z</time>
      </trkpt>
      <trkpt lat="44.42674" lon="5.98942">
        <ele>675.944092</ele>
        <time>2011-02-18T13:18:35Z</time>
      </trkpt>
      <trkpt lat="44.42657" lon="5.98937">
        <ele>674.502197</ele>
        <time>2011-02-18T13:18:37Z</time>
      </trkpt>
      <trkpt lat="44.42618" lon="5.98952">
        <ele>672.098877</ele>
        <time>2011-02-18T13:18:43Z</time>
      </trkpt>
      <trkpt lat="44.42606" lon="5.98965">
        <ele>670.656982</ele>
        <time>2011-02-18T13:18:45Z</time>
      </trkpt>
      <trkpt lat="44.42572" lon="5.98977">
        <ele>668.253662</ele>
        <time>2011-02-18T13:18:50Z</time>
      </trkpt>
      <trkpt lat="44.42557" lon="5.98976">
        <ele>667.772705</ele>
        <time>2011-02-18T13:18:52Z</time>
      </trkpt>
      <trkpt lat="44.42515" lon="5.98974">
        <ele>664.408203</ele>
        <time>2011-02-18T13:18:57Z</time>
      </trkpt>
      <trkpt lat="44.42499" lon="5.98977">
        <ele>663.447021</ele>
        <time>2011-02-18T13:18:59Z</time>
      </trkpt>
      <trkpt lat="44.42471" lon="5.98988">
        <ele>662.485596</ele>
        <time>2011-02-18T13:19:03Z</time>
      </trkpt>
      <trkpt lat="44.42443" lon="5.98986">
        <ele>660.562988</ele>
        <time>2011-02-18T13:19:07Z</time>
      </trkpt>
      <trkpt lat="44.42421" lon="5.98978">
        <ele>659.601807</ele>
        <time>2011-02-18T13:19:10Z</time>
      </trkpt>
      <trkpt lat="44.42393" lon="5.98954">
        <ele>656.237061</ele>
        <time>2011-02-18T13:19:14Z</time>
      </trkpt>
      <trkpt lat="44.4236" lon="5.98908">
        <ele>653.833984</ele>
        <time>2011-02-18T13:19:19Z</time>
      </trkpt>
      <trkpt lat="44.4233" lon="5.98872">
        <ele>650.469238</ele>
        <time>2011-02-18T13:19:23Z</time>
      </trkpt>
      <trkpt lat="44.42302" lon="5.98853">
        <ele>649.0271</ele>
        <time>2011-02-18T13:19:26Z</time>
      </trkpt>
      <trkpt lat="44.42271" lon="5.98841">
        <ele>646.624023</ele>
        <time>2011-02-18T13:19:29Z</time>
      </trkpt>
      <trkpt lat="44.4225" lon="5.98835">
        <ele>644.220703</ele>
        <time>2011-02-18T13:19:31Z</time>
      </trkpt>
      <trkpt lat="44.42231" lon="5.98831">
        <ele>642.298096</ele>
        <time>2011-02-18T13:19:33Z</time>
      </trkpt>
      <trkpt lat="44.42201" lon="5.98823">
        <ele>643.259277</ele>
        <time>2011-02-18T13:19:37Z</time>
      </trkpt>
      <trkpt lat="44.42183" lon="5.98811">
        <ele>642.298096</ele>
        <time>2011-02-18T13:19:40Z</time>
      </trkpt>
      <trkpt lat="44.42174" lon="5.98802">
        <ele>641.817383</ele>
        <time>2011-02-18T13:19:42Z</time>
      </trkpt>
      <trkpt lat="44.42165" lon="5.98815">
        <ele>641.33667</ele>
        <time>2011-02-18T13:19:49Z</time>
      </trkpt>
      <trkpt lat="44.42177" lon="5.98826">
        <ele>639.894775</ele>
        <time>2011-02-18T13:19:53Z</time>
      </trkpt>
      <trkpt lat="44.42208" lon="5.98844">
        <ele>637.491455</ele>
        <time>2011-02-18T13:19:59Z</time>
      </trkpt>
      <trkpt lat="44.42249" lon="5.98876">
        <ele>634.607422</ele>
        <time>2011-02-18T13:20:06Z</time>
      </trkpt>
      <trkpt lat="44.42262" lon="5.98888">
        <ele>633.165283</ele>
        <time>2011-02-18T13:20:08Z</time>
      </trkpt>
      <trkpt lat="44.42274" lon="5.98904">
        <ele>631.24292</ele>
        <time>2011-02-18T13:20:10Z</time>
      </trkpt>
      <trkpt lat="44.42289" lon="5.98933">
        <ele>628.8396</ele>
        <time>2011-02-18T13:20:13Z</time>
      </trkpt>
      <trkpt lat="44.423" lon="5.98953">
        <ele>627.397705</ele>
        <time>2011-02-18T13:20:15Z</time>
      </trkpt>
      <trkpt lat="44.42333" lon="5.99007">
        <ele>623.55249</ele>
        <time>2011-02-18T13:20:21Z</time>
      </trkpt>
      <trkpt lat="44.4234" lon="5.99016">
        <ele>623.55249</ele>
        <time>2011-02-18T13:20:22Z</time>
      </trkpt>
      <trkpt lat="44.42353" lon="5.99035">
        <ele>622.110352</ele>
        <time>2011-02-18T13:20:24Z</time>
      </trkpt>
      <trkpt lat="44.42373" lon="5.99063">
        <ele>619.707031</ele>
        <time>2011-02-18T13:20:27Z</time>
      </trkpt>
      <trkpt lat="44.42412" lon="5.99123">
        <ele>617.303711</ele>
        <time>2011-02-18T13:20:33Z</time>
      </trkpt>
      <trkpt lat="44.42429" lon="5.99158">
        <ele>614.419678</ele>
        <time>2011-02-18T13:20:36Z</time>
      </trkpt>
      <trkpt lat="44.4244" lon="5.99182">
        <ele>612.977783</ele>
        <time>2011-02-18T13:20:38Z</time>
      </trkpt>
      <trkpt lat="44.42459" lon="5.99269">
        <ele>612.977783</ele>
        <time>2011-02-18T13:20:47Z</time>
      </trkpt>
      <trkpt lat="44.42459" lon="5.99289">
        <ele>611.055176</ele>
        <time>2011-02-18T13:20:50Z</time>
      </trkpt>
      <trkpt lat="44.42441" lon="5.99312">
        <ele>609.613281</ele>
        <time>2011-02-18T13:20:54Z</time>
      </trkpt>
      <trkpt lat="44.42426" lon="5.99314">
        <ele>606.248535</ele>
        <time>2011-02-18T13:20:56Z</time>
      </trkpt>
      <trkpt lat="44.42384" lon="5.99322">
        <ele>603.845215</ele>
        <time>2011-02-18T13:21:01Z</time>
      </trkpt>
      <trkpt lat="44.42366" lon="5.99326">
        <ele>599.519287</ele>
        <time>2011-02-18T13:21:03Z</time>
      </trkpt>
      <trkpt lat="44.42356" lon="5.99328">
        <ele>599.519287</ele>
        <time>2011-02-18T13:21:04Z</time>
      </trkpt>
      <trkpt lat="44.42316" lon="5.99333">
        <ele>596.635498</ele>
        <time>2011-02-18T13:21:08Z</time>
      </trkpt>
      <trkpt lat="44.42284" lon="5.99337">
        <ele>594.232178</ele>
        <time>2011-02-18T13:21:11Z</time>
      </trkpt>
      <trkpt lat="44.42262" lon="5.9934">
        <ele>592.790283</ele>
        <time>2011-02-18T13:21:13Z</time>
      </trkpt>
      <trkpt lat="44.4224" lon="5.99342">
        <ele>591.828857</ele>
        <time>2011-02-18T13:21:15Z</time>
      </trkpt>
      <trkpt lat="44.42159" lon="5.99351">
        <ele>587.502686</ele>
        <time>2011-02-18T13:21:23Z</time>
      </trkpt>
      <trkpt lat="44.42087" lon="5.99363">
        <ele>587.021973</ele>
        <time>2011-02-18T13:21:32Z</time>
      </trkpt>
      <trkpt lat="44.42064" lon="5.9938">
        <ele>586.541504</ele>
        <time>2011-02-18T13:21:37Z</time>
      </trkpt>
      <trkpt lat="44.42059" lon="5.99392">
        <ele>584.618896</ele>
        <time>2011-02-18T13:21:39Z</time>
      </trkpt>
      <trkpt lat="44.42056" lon="5.99402">
        <ele>583.657471</ele>
        <time>2011-02-18T13:21:41Z</time>
      </trkpt>
      <trkpt lat="44.4205" lon="5.99428">
        <ele>582.215576</ele>
        <time>2011-02-18T13:21:47Z</time>
      </trkpt>
      <trkpt lat="44.42058" lon="5.99441">
        <ele>580.773682</ele>
        <time>2011-02-18T13:21:50Z</time>
      </trkpt>
      <trkpt lat="44.42067" lon="5.99462">
        <ele>582.215576</ele>
        <time>2011-02-18T13:21:54Z</time>
      </trkpt>
      <trkpt lat="44.42082" lon="5.99509">
        <ele>581.254395</ele>
        <time>2011-02-18T13:22:02Z</time>
      </trkpt>
      <trkpt lat="44.4209" lon="5.99532">
        <ele>581.254395</ele>
        <time>2011-02-18T13:22:06Z</time>
      </trkpt>
      <trkpt lat="44.42104" lon="5.99577">
        <ele>581.254395</ele>
        <time>2011-02-18T13:22:14Z</time>
      </trkpt>
      <trkpt lat="44.42146" lon="5.99698">
        <ele>582.215576</ele>
        <time>2011-02-18T13:22:36Z</time>
      </trkpt>
      <trkpt lat="44.42162" lon="5.99747">
        <ele>583.657471</ele>
        <time>2011-02-18T13:22:45Z</time>
      </trkpt>
      <trkpt lat="44.42201" lon="5.99864">
        <ele>582.215576</ele>
        <time>2011-02-18T13:23:04Z</time>
      </trkpt>
      <trkpt lat="44.42245" lon="5.99995">
        <ele>582.215576</ele>
        <time>2011-02-18T13:23:25Z</time>
      </trkpt>
      <trkpt lat="44.4226" lon="6.00041">
        <ele>582.215576</ele>
        <time>2011-02-18T13:23:34Z</time>
      </trkpt>
      <trkpt lat="44.42291" lon="6.00125">
        <ele>582.215576</ele>
        <time>2011-02-18T13:23:50Z</time>
      </trkpt>
      <trkpt lat="44.42325" lon="6.00226">
        <ele>583.176758</ele>
        <time>2011-02-18T13:24:10Z</time>
      </trkpt>
      <trkpt lat="44.42367" lon="6.0036">
        <ele>585.099609</ele>
        <time>2011-02-18T13:24:36Z</time>
      </trkpt>
      <trkpt lat="44.42393" lon="6.00444">
        <ele>586.541504</ele>
        <time>2011-02-18T13:24:56Z</time>
      </trkpt>
      <trkpt lat="44.42421" lon="6.00532">
        <ele>587.502686</ele>
        <time>2011-02-18T13:25:17Z</time>
      </trkpt>
      <trkpt lat="44.42451" lon="6.00624">
        <ele>586.541504</ele>
        <time>2011-02-18T13:25:36Z</time>
      </trkpt>
      <trkpt lat="44.42471" lon="6.00682">
        <ele>585.099609</ele>
        <time>2011-02-18T13:25:49Z</time>
      </trkpt>
      <trkpt lat="44.42475" lon="6.00693">
        <ele>587.021973</ele>
        <time>2011-02-18T13:25:52Z</time>
      </trkpt>
      <trkpt lat="44.42492" lon="6.00733">
        <ele>585.580078</ele>
        <time>2011-02-18T13:26:05Z</time>
      </trkpt>
      <trkpt lat="44.42499" lon="6.00743">
        <ele>584.138184</ele>
        <time>2011-02-18T13:26:08Z</time>
      </trkpt>
      <trkpt lat="44.42502" lon="6.00747">
        <ele>584.138184</ele>
        <time>2011-02-18T13:26:09Z</time>
      </trkpt>
      <trkpt lat="44.42515" lon="6.00765">
        <ele>582.215576</ele>
        <time>2011-02-18T13:26:13Z</time>
      </trkpt>
      <trkpt lat="44.4257" lon="6.0086">
        <ele>577.889648</ele>
        <time>2011-02-18T13:26:27Z</time>
      </trkpt>
      <trkpt lat="44.42574" lon="6.00869">
        <ele>576.928467</ele>
        <time>2011-02-18T13:26:29Z</time>
      </trkpt>
      <trkpt lat="44.42588" lon="6.00899">
        <ele>575.005859</ele>
        <time>2011-02-18T13:26:33Z</time>
      </trkpt>
      <trkpt lat="44.42616" lon="6.00944">
        <ele>575.486328</ele>
        <time>2011-02-18T13:26:41Z</time>
      </trkpt>
      <trkpt lat="44.42667" lon="6.01045">
        <ele>574.525146</ele>
        <time>2011-02-18T13:26:58Z</time>
      </trkpt>
      <trkpt lat="44.42716" lon="6.01139">
        <ele>575.486328</ele>
        <time>2011-02-18T13:27:15Z</time>
      </trkpt>
      <trkpt lat="44.42756" lon="6.01242">
        <ele>577.889648</ele>
        <time>2011-02-18T13:27:34Z</time>
      </trkpt>
      <trkpt lat="44.42769" lon="6.01273">
        <ele>581.734863</ele>
        <time>2011-02-18T13:27:42Z</time>
      </trkpt>
      <trkpt lat="44.42801" lon="6.01354">
        <ele>580.292969</ele>
        <time>2011-02-18T13:27:59Z</time>
      </trkpt>
      <trkpt lat="44.42861" lon="6.01464">
        <ele>580.292969</ele>
        <time>2011-02-18T13:28:21Z</time>
      </trkpt>
      <trkpt lat="44.42867" lon="6.01472">
        <ele>580.773682</ele>
        <time>2011-02-18T13:28:23Z</time>
      </trkpt>
      <trkpt lat="44.42932" lon="6.01555">
        <ele>583.176758</ele>
        <time>2011-02-18T13:28:45Z</time>
      </trkpt>
      <trkpt lat="44.42971" lon="6.01601">
        <ele>584.618896</ele>
        <time>2011-02-18T13:28:58Z</time>
      </trkpt>
      <trkpt lat="44.42981" lon="6.01613">
        <ele>583.176758</ele>
        <time>2011-02-18T13:29:01Z</time>
      </trkpt>
      <trkpt lat="44.43049" lon="6.01699">
        <ele>583.657471</ele>
        <time>2011-02-18T13:29:20Z</time>
      </trkpt>
      <trkpt lat="44.43122" lon="6.01797">
        <ele>582.696289</ele>
        <time>2011-02-18T13:29:39Z</time>
      </trkpt>
      <trkpt lat="44.43179" lon="6.019">
        <ele>581.254395</ele>
        <time>2011-02-18T13:29:56Z</time>
      </trkpt>
      <trkpt lat="44.43225" lon="6.02029">
        <ele>581.254395</ele>
        <time>2011-02-18T13:30:15Z</time>
      </trkpt>
      <trkpt lat="44.43244" lon="6.02085">
        <ele>583.176758</ele>
        <time>2011-02-18T13:30:25Z</time>
      </trkpt>
      <trkpt lat="44.43266" lon="6.02156">
        <ele>584.618896</ele>
        <time>2011-02-18T13:30:39Z</time>
      </trkpt>
      <trkpt lat="44.43264" lon="6.02207">
        <ele>585.099609</ele>
        <time>2011-02-18T13:30:52Z</time>
      </trkpt>
      <trkpt lat="44.43264" lon="6.02207">
        <ele>585.099609</ele>
        <time>2011-02-18T13:30:56Z</time>
      </trkpt>
      <trkpt lat="44.43264" lon="6.02207">
        <ele>585.580078</ele>
        <time>2011-02-18T13:31:17Z</time>
      </trkpt>
      <trkpt lat="44.43259" lon="6.02216">
        <ele>585.580078</ele>
        <time>2011-02-18T13:31:42Z</time>
      </trkpt>
      <trkpt lat="44.43263" lon="6.0222">
        <ele>586.060791</ele>
        <time>2011-02-18T13:31:47Z</time>
      </trkpt>
      <trkpt lat="44.43323" lon="6.02296">
        <ele>586.060791</ele>
        <time>2011-02-18T13:32:03Z</time>
      </trkpt>
      <trkpt lat="44.43434" lon="6.02405">
        <ele>583.176758</ele>
        <time>2011-02-18T13:32:27Z</time>
      </trkpt>
      <trkpt lat="44.4356" lon="6.02458">
        <ele>581.734863</ele>
        <time>2011-02-18T13:32:49Z</time>
      </trkpt>
      <trkpt lat="44.43696" lon="6.02501">
        <ele>582.696289</ele>
        <time>2011-02-18T13:33:13Z</time>
      </trkpt>
      <trkpt lat="44.43825" lon="6.02526">
        <ele>583.176758</ele>
        <time>2011-02-18T13:33:39Z</time>
      </trkpt>
      <trkpt lat="44.4393" lon="6.02577">
        <ele>583.657471</ele>
        <time>2011-02-18T13:34:01Z</time>
      </trkpt>
      <trkpt lat="44.44047" lon="6.02673">
        <ele>584.618896</ele>
        <time>2011-02-18T13:34:29Z</time>
      </trkpt>
      <trkpt lat="44.44126" lon="6.0272">
        <ele>587.983398</ele>
        <time>2011-02-18T13:34:51Z</time>
      </trkpt>
      <trkpt lat="44.44182" lon="6.02776">
        <ele>588.464355</ele>
        <time>2011-02-18T13:35:08Z</time>
      </trkpt>
      <trkpt lat="44.44179" lon="6.02821">
        <ele>588.945068</ele>
        <time>2011-02-18T13:35:18Z</time>
      </trkpt>
      <trkpt lat="44.44196" lon="6.02847">
        <ele>588.464355</ele>
        <time>2011-02-18T13:35:24Z</time>
      </trkpt>
      <trkpt lat="44.44199" lon="6.02851">
        <ele>588.464355</ele>
        <time>2011-02-18T13:35:25Z</time>
      </trkpt>
      <trkpt lat="44.44208" lon="6.02872">
        <ele>588.464355</ele>
        <time>2011-02-18T13:35:29Z</time>
      </trkpt>
      <trkpt lat="44.4423" lon="6.02961">
        <ele>591.828857</ele>
        <time>2011-02-18T13:35:48Z</time>
      </trkpt>
      <trkpt lat="44.44251" lon="6.03056">
        <ele>595.193359</ele>
        <time>2011-02-18T13:36:09Z</time>
      </trkpt>
      <trkpt lat="44.44282" lon="6.03118">
        <ele>594.712646</ele>
        <time>2011-02-18T13:36:25Z</time>
      </trkpt>
      <trkpt lat="44.44264" lon="6.03138">
        <ele>594.232178</ele>
        <time>2011-02-18T13:36:33Z</time>
      </trkpt>
      <trkpt lat="44.44256" lon="6.0312">
        <ele>591.828857</ele>
        <time>2011-02-18T13:36:36Z</time>
      </trkpt>
      <trkpt lat="44.44252" lon="6.03106">
        <ele>590.867432</ele>
        <time>2011-02-18T13:36:38Z</time>
      </trkpt>
      <trkpt lat="44.4425" lon="6.031">
        <ele>590.386963</ele>
        <time>2011-02-18T13:36:39Z</time>
      </trkpt>
      <trkpt lat="44.44236" lon="6.03085">
        <ele>588.945068</ele>
        <time>2011-02-18T13:36:42Z</time>
      </trkpt>
      <trkpt lat="44.44223" lon="6.03081">
        <ele>587.983398</ele>
        <time>2011-02-18T13:36:44Z</time>
      </trkpt>
      <trkpt lat="44.44211" lon="6.03081">
        <ele>586.541504</ele>
        <time>2011-02-18T13:36:46Z</time>
      </trkpt>
      <trkpt lat="44.44205" lon="6.03081">
        <ele>586.541504</ele>
        <time>2011-02-18T13:36:47Z</time>
      </trkpt>
      <trkpt lat="44.44104" lon="6.0309">
        <ele>585.580078</ele>
        <time>2011-02-18T13:37:06Z</time>
      </trkpt>
      <trkpt lat="44.4409" lon="6.03093">
        <ele>585.099609</ele>
        <time>2011-02-18T13:37:09Z</time>
      </trkpt>
      <trkpt lat="44.4407" lon="6.03097">
        <ele>584.618896</ele>
        <time>2011-02-18T13:37:13Z</time>
      </trkpt>
      <trkpt lat="44.4405" lon="6.03122">
        <ele>584.618896</ele>
        <time>2011-02-18T13:37:19Z</time>
      </trkpt>
      <trkpt lat="44.44031" lon="6.03271">
        <ele>582.696289</ele>
        <time>2011-02-18T13:37:39Z</time>
      </trkpt>
      <trkpt lat="44.44028" lon="6.033">
        <ele>582.215576</ele>
        <time>2011-02-18T13:37:43Z</time>
      </trkpt>
      <trkpt lat="44.44064" lon="6.03419">
        <ele>582.696289</ele>
        <time>2011-02-18T13:38:01Z</time>
      </trkpt>
      <trkpt lat="44.44122" lon="6.03544">
        <ele>583.657471</ele>
        <time>2011-02-18T13:38:25Z</time>
      </trkpt>
      <trkpt lat="44.44146" lon="6.0359">
        <ele>583.657471</ele>
        <time>2011-02-18T13:38:37Z</time>
      </trkpt>
      <trkpt lat="44.44173" lon="6.03702">
        <ele>583.176758</ele>
        <time>2011-02-18T13:38:56Z</time>
      </trkpt>
      <trkpt lat="44.44208" lon="6.03822">
        <ele>584.618896</ele>
        <time>2011-02-18T13:39:18Z</time>
      </trkpt>
      <trkpt lat="44.44239" lon="6.03874">
        <ele>587.983398</ele>
        <time>2011-02-18T13:39:34Z</time>
      </trkpt>
      <trkpt lat="44.4426" lon="6.03925">
        <ele>590.867432</ele>
        <time>2011-02-18T13:39:49Z</time>
      </trkpt>
      <trkpt lat="44.44277" lon="6.03974">
        <ele>594.232178</ele>
        <time>2011-02-18T13:40:05Z</time>
      </trkpt>
      <trkpt lat="44.44289" lon="6.04036">
        <ele>594.232178</ele>
        <time>2011-02-18T13:40:21Z</time>
      </trkpt>
      <trkpt lat="44.44286" lon="6.04118">
        <ele>594.232178</ele>
        <time>2011-02-18T13:40:36Z</time>
      </trkpt>
      <trkpt lat="44.44297" lon="6.04225">
        <ele>594.232178</ele>
        <time>2011-02-18T13:40:56Z</time>
      </trkpt>
      <trkpt lat="44.44328" lon="6.04311">
        <ele>594.712646</ele>
        <time>2011-02-18T13:41:14Z</time>
      </trkpt>
      <trkpt lat="44.44367" lon="6.04388">
        <ele>594.712646</ele>
        <time>2011-02-18T13:41:31Z</time>
      </trkpt>
      <trkpt lat="44.44401" lon="6.04446">
        <ele>594.232178</ele>
        <time>2011-02-18T13:41:47Z</time>
      </trkpt>
      <trkpt lat="44.44446" lon="6.04548">
        <ele>593.270752</ele>
        <time>2011-02-18T13:42:07Z</time>
      </trkpt>
      <trkpt lat="44.44483" lon="6.04647">
        <ele>592.790283</ele>
        <time>2011-02-18T13:42:23Z</time>
      </trkpt>
      <trkpt lat="44.44495" lon="6.04688">
        <ele>592.790283</ele>
        <time>2011-02-18T13:42:30Z</time>
      </trkpt>
      <trkpt lat="44.44514" lon="6.0476">
        <ele>594.232178</ele>
        <time>2011-02-18T13:42:45Z</time>
      </trkpt>
      <trkpt lat="44.44552" lon="6.04843">
        <ele>594.712646</ele>
        <time>2011-02-18T13:43:05Z</time>
      </trkpt>
      <trkpt lat="44.44609" lon="6.04937">
        <ele>595.674072</ele>
        <time>2011-02-18T13:43:29Z</time>
      </trkpt>
      <trkpt lat="44.44662" lon="6.05008">
        <ele>595.193359</ele>
        <time>2011-02-18T13:43:49Z</time>
      </trkpt>
      <trkpt lat="44.44717" lon="6.05102">
        <ele>595.193359</ele>
        <time>2011-02-18T13:44:11Z</time>
      </trkpt>
      <trkpt lat="44.44758" lon="6.05177">
        <ele>595.674072</ele>
        <time>2011-02-18T13:44:28Z</time>
      </trkpt>
      <trkpt lat="44.448" lon="6.05239">
        <ele>596.635498</ele>
        <time>2011-02-18T13:44:44Z</time>
      </trkpt>
      <trkpt lat="44.44845" lon="6.05273">
        <ele>597.115967</ele>
        <time>2011-02-18T13:44:58Z</time>
      </trkpt>
      <trkpt lat="44.44875" lon="6.05292">
        <ele>598.557861</ele>
        <time>2011-02-18T13:45:08Z</time>
      </trkpt>
      <trkpt lat="44.44925" lon="6.0532">
        <ele>598.557861</ele>
        <time>2011-02-18T13:45:26Z</time>
      </trkpt>
      <trkpt lat="44.44951" lon="6.05324">
        <ele>597.115967</ele>
        <time>2011-02-18T13:45:32Z</time>
      </trkpt>
      <trkpt lat="44.44992" lon="6.05335">
        <ele>593.270752</ele>
        <time>2011-02-18T13:45:40Z</time>
      </trkpt>
      <trkpt lat="44.45012" lon="6.05344">
        <ele>593.751465</ele>
        <time>2011-02-18T13:45:44Z</time>
      </trkpt>
      <trkpt lat="44.45022" lon="6.05352">
        <ele>591.828857</ele>
        <time>2011-02-18T13:45:46Z</time>
      </trkpt>
      <trkpt lat="44.45029" lon="6.05366">
        <ele>589.90625</ele>
        <time>2011-02-18T13:45:48Z</time>
      </trkpt>
      <trkpt lat="44.45082" lon="6.05458">
        <ele>589.425537</ele>
        <time>2011-02-18T13:46:03Z</time>
      </trkpt>
      <trkpt lat="44.45093" lon="6.05472">
        <ele>588.945068</ele>
        <time>2011-02-18T13:46:06Z</time>
      </trkpt>
      <trkpt lat="44.45163" lon="6.05507">
        <ele>587.983398</ele>
        <time>2011-02-18T13:46:23Z</time>
      </trkpt>
      <trkpt lat="44.45266" lon="6.05544">
        <ele>590.867432</ele>
        <time>2011-02-18T13:46:47Z</time>
      </trkpt>
      <trkpt lat="44.45331" lon="6.05568">
        <ele>590.867432</ele>
        <time>2011-02-18T13:47:03Z</time>
      </trkpt>
      <trkpt lat="44.45343" lon="6.05572">
        <ele>590.867432</ele>
        <time>2011-02-18T13:47:06Z</time>
      </trkpt>
      <trkpt lat="44.45437" lon="6.05606">
        <ele>590.867432</ele>
        <time>2011-02-18T13:47:26Z</time>
      </trkpt>
      <trkpt lat="44.45548" lon="6.05648">
        <ele>591.828857</ele>
        <time>2011-02-18T13:47:49Z</time>
      </trkpt>
      <trkpt lat="44.45584" lon="6.05661">
        <ele>592.790283</ele>
        <time>2011-02-18T13:47:57Z</time>
      </trkpt>
      <trkpt lat="44.45606" lon="6.05669">
        <ele>591.828857</ele>
        <time>2011-02-18T13:48:02Z</time>
      </trkpt>
      <trkpt lat="44.45615" lon="6.05673">
        <ele>593.751465</ele>
        <time>2011-02-18T13:48:04Z</time>
      </trkpt>
      <trkpt lat="44.45686" lon="6.05728">
        <ele>591.828857</ele>
        <time>2011-02-18T13:48:21Z</time>
      </trkpt>
      <trkpt lat="44.45696" lon="6.05732">
        <ele>593.751465</ele>
        <time>2011-02-18T13:48:23Z</time>
      </trkpt>
      <trkpt lat="44.45762" lon="6.05756">
        <ele>591.828857</ele>
        <time>2011-02-18T13:48:37Z</time>
      </trkpt>
      <trkpt lat="44.45771" lon="6.05759">
        <ele>593.751465</ele>
        <time>2011-02-18T13:48:39Z</time>
      </trkpt>
      <trkpt lat="44.45844" lon="6.05786">
        <ele>593.270752</ele>
        <time>2011-02-18T13:48:57Z</time>
      </trkpt>
      <trkpt lat="44.4592" lon="6.05815">
        <ele>594.232178</ele>
        <time>2011-02-18T13:49:21Z</time>
      </trkpt>
      <trkpt lat="44.4592" lon="6.05815">
        <ele>594.232178</ele>
        <time>2011-02-18T13:49:38Z</time>
      </trkpt>
      <trkpt lat="44.4592" lon="6.05815">
        <ele>593.751465</ele>
        <time>2011-02-18T13:49:54Z</time>
      </trkpt>
      <trkpt lat="44.45943" lon="6.05824">
        <ele>593.270752</ele>
        <time>2011-02-18T13:50:07Z</time>
      </trkpt>
      <trkpt lat="44.45992" lon="6.05843">
        <ele>592.790283</ele>
        <time>2011-02-18T13:50:20Z</time>
      </trkpt>
      <trkpt lat="44.46081" lon="6.05874">
        <ele>592.790283</ele>
        <time>2011-02-18T13:50:41Z</time>
      </trkpt>
      <trkpt lat="44.46188" lon="6.0591">
        <ele>595.193359</ele>
        <time>2011-02-18T13:51:07Z</time>
      </trkpt>
      <trkpt lat="44.46196" lon="6.05903">
        <ele>595.193359</ele>
        <time>2011-02-18T13:51:12Z</time>
      </trkpt>
      <trkpt lat="44.46198" lon="6.05892">
        <ele>596.635498</ele>
        <time>2011-02-18T13:51:15Z</time>
      </trkpt>
      <trkpt lat="44.46202" lon="6.05868">
        <ele>595.193359</ele>
        <time>2011-02-18T13:51:20Z</time>
      </trkpt>
      <trkpt lat="44.46217" lon="6.05795">
        <ele>593.751465</ele>
        <time>2011-02-18T13:51:33Z</time>
      </trkpt>
      <trkpt lat="44.46222" lon="6.05771">
        <ele>595.193359</ele>
        <time>2011-02-18T13:51:38Z</time>
      </trkpt>
      <trkpt lat="44.46281" lon="6.05727">
        <ele>595.674072</ele>
        <time>2011-02-18T13:51:56Z</time>
      </trkpt>
      <trkpt lat="44.46323" lon="6.05728">
        <ele>599.519287</ele>
        <time>2011-02-18T13:52:12Z</time>
      </trkpt>
      <trkpt lat="44.46324" lon="6.05725">
        <ele>599.519287</ele>
        <time>2011-02-18T13:52:14Z</time>
      </trkpt>
      <trkpt lat="44.4632" lon="6.05714">
        <ele>599.519287</ele>
        <time>2011-02-18T13:52:19Z</time>
      </trkpt>
      <trkpt lat="44.46289" lon="6.05691">
        <ele>603.364502</ele>
        <time>2011-02-18T13:52:35Z</time>
      </trkpt>
      <trkpt lat="44.46265" lon="6.05647">
        <ele>603.845215</ele>
        <time>2011-02-18T13:52:50Z</time>
      </trkpt>
      <trkpt lat="44.46278" lon="6.05657">
        <ele>603.364502</ele>
        <time>2011-02-18T13:52:51Z</time>
      </trkpt>
      <trkpt lat="44.46295" lon="6.0564">
        <ele>605.287354</ele>
        <time>2011-02-18T13:53:05Z</time>
      </trkpt>
      <trkpt lat="44.46295" lon="6.0564">
        <ele>607.209961</ele>
        <time>2011-02-18T13:53:07Z</time>
      </trkpt>
      <trkpt lat="44.46295" lon="6.0564">
        <ele>606.248535</ele>
        <time>2011-02-18T13:53:32Z</time>
      </trkpt>
      <trkpt lat="44.46295" lon="6.0564">
        <ele>606.729248</ele>
        <time>2011-02-18T13:53:47Z</time>
      </trkpt>
      <trkpt lat="44.46279" lon="6.05594">
        <ele>605.768066</ele>
        <time>2011-02-18T13:53:52Z</time>
      </trkpt>
      <trkpt lat="44.46232" lon="6.05551">
        <ele>606.729248</ele>
        <time>2011-02-18T13:54:12Z</time>
      </trkpt>
      <trkpt lat="44.46189" lon="6.05518">
        <ele>607.209961</ele>
        <time>2011-02-18T13:54:29Z</time>
      </trkpt>
      <trkpt lat="44.46186" lon="6.05517">
        <ele>607.209961</ele>
        <time>2011-02-18T13:54:30Z</time>
      </trkpt>
      <trkpt lat="44.46182" lon="6.05501">
        <ele>605.287354</ele>
        <time>2011-02-18T13:54:33Z</time>
      </trkpt>
      <trkpt lat="44.46182" lon="6.05494">
        <ele>607.209961</ele>
        <time>2011-02-18T13:54:35Z</time>
      </trkpt>
      <trkpt lat="44.46185" lon="6.05474">
        <ele>608.171387</ele>
        <time>2011-02-18T13:54:40Z</time>
      </trkpt>
      <trkpt lat="44.46219" lon="6.05433">
        <ele>610.09375</ele>
        <time>2011-02-18T13:54:56Z</time>
      </trkpt>
      <trkpt lat="44.46254" lon="6.05396">
        <ele>612.977783</ele>
        <time>2011-02-18T13:55:13Z</time>
      </trkpt>
      <trkpt lat="44.46298" lon="6.0535">
        <ele>615.861816</ele>
        <time>2011-02-18T13:55:34Z</time>
      </trkpt>
      <trkpt lat="44.46332" lon="6.05312">
        <ele>618.745605</ele>
        <time>2011-02-18T13:55:50Z</time>
      </trkpt>
      <trkpt lat="44.46345" lon="6.05299">
        <ele>617.303711</ele>
        <time>2011-02-18T13:55:56Z</time>
      </trkpt>
      <trkpt lat="44.4639" lon="6.05273">
        <ele>620.187744</ele>
        <time>2011-02-18T13:56:15Z</time>
      </trkpt>
      <trkpt lat="44.4641" lon="6.05328">
        <ele>621.629639</ele>
        <time>2011-02-18T13:56:32Z</time>
      </trkpt>
      <trkpt lat="44.46422" lon="6.05365">
        <ele>623.071777</ele>
        <time>2011-02-18T13:56:43Z</time>
      </trkpt>
      <trkpt lat="44.46445" lon="6.05431">
        <ele>624.994385</ele>
        <time>2011-02-18T13:57:04Z</time>
      </trkpt>
      <trkpt lat="44.46476" lon="6.05448">
        <ele>626.916992</ele>
        <time>2011-02-18T13:57:19Z</time>
      </trkpt>
      <trkpt lat="44.46489" lon="6.05444">
        <ele>627.878174</ele>
        <time>2011-02-18T13:57:25Z</time>
      </trkpt>
      <trkpt lat="44.46504" lon="6.05436">
        <ele>628.8396</ele>
        <time>2011-02-18T13:57:33Z</time>
      </trkpt>
      <trkpt lat="44.46551" lon="6.05408">
        <ele>630.762207</ele>
        <time>2011-02-18T13:57:58Z</time>
      </trkpt>
      <trkpt lat="44.46585" lon="6.05392">
        <ele>634.126709</ele>
        <time>2011-02-18T13:58:16Z</time>
      </trkpt>
      <trkpt lat="44.46627" lon="6.05402">
        <ele>637.010742</ele>
        <time>2011-02-18T13:58:38Z</time>
      </trkpt>
      <trkpt lat="44.46635" lon="6.05404">
        <ele>637.491455</ele>
        <time>2011-02-18T13:58:42Z</time>
      </trkpt>
      <trkpt lat="44.46642" lon="6.0539">
        <ele>639.414063</ele>
        <time>2011-02-18T13:58:58Z</time>
      </trkpt>
      <trkpt lat="44.4665" lon="6.05362">
        <ele>641.33667</ele>
        <time>2011-02-18T13:59:08Z</time>
      </trkpt>
      <trkpt lat="44.46664" lon="6.05318">
        <ele>643.259277</ele>
        <time>2011-02-18T13:59:28Z</time>
      </trkpt>
      <trkpt lat="44.46736" lon="6.05312">
        <ele>646.143311</ele>
        <time>2011-02-18T13:59:49Z</time>
      </trkpt>
      <trkpt lat="44.46769" lon="6.05272">
        <ele>649.0271</ele>
        <time>2011-02-18T14:00:12Z</time>
      </trkpt>
      <trkpt lat="44.46802" lon="6.05243">
        <ele>652.391846</ele>
        <time>2011-02-18T14:00:33Z</time>
      </trkpt>
      <trkpt lat="44.46837" lon="6.05235">
        <ele>654.795166</ele>
        <time>2011-02-18T14:00:51Z</time>
      </trkpt>
      <trkpt lat="44.46873" lon="6.05235">
        <ele>657.198486</ele>
        <time>2011-02-18T14:01:10Z</time>
      </trkpt>
      <trkpt lat="44.46903" lon="6.05215">
        <ele>659.121094</ele>
        <time>2011-02-18T14:01:28Z</time>
      </trkpt>
      <trkpt lat="44.46889" lon="6.05174">
        <ele>661.043701</ele>
        <time>2011-02-18T14:01:45Z</time>
      </trkpt>
      <trkpt lat="44.46875" lon="6.05119">
        <ele>662.485596</ele>
        <time>2011-02-18T14:02:06Z</time>
      </trkpt>
      <trkpt lat="44.4686" lon="6.05082">
        <ele>664.888916</ele>
        <time>2011-02-18T14:02:23Z</time>
      </trkpt>
      <trkpt lat="44.46842" lon="6.05051">
        <ele>667.292236</ele>
        <time>2011-02-18T14:02:39Z</time>
      </trkpt>
      <trkpt lat="44.46817" lon="6.05004">
        <ele>670.17627</ele>
        <time>2011-02-18T14:03:03Z</time>
      </trkpt>
      <trkpt lat="44.46793" lon="6.04962">
        <ele>673.060303</ele>
        <time>2011-02-18T14:03:25Z</time>
      </trkpt>
      <trkpt lat="44.46796" lon="6.04922">
        <ele>674.98291</ele>
        <time>2011-02-18T14:03:41Z</time>
      </trkpt>
      <trkpt lat="44.46833" lon="6.04899">
        <ele>677.866699</ele>
        <time>2011-02-18T14:04:02Z</time>
      </trkpt>
      <trkpt lat="44.46867" lon="6.04879">
        <ele>679.789307</ele>
        <time>2011-02-18T14:04:22Z</time>
      </trkpt>
      <trkpt lat="44.46903" lon="6.04863">
        <ele>682.192627</ele>
        <time>2011-02-18T14:04:42Z</time>
      </trkpt>
      <trkpt lat="44.46914" lon="6.04869">
        <ele>683.153809</ele>
        <time>2011-02-18T14:04:49Z</time>
      </trkpt>
      <trkpt lat="44.46911" lon="6.04881">
        <ele>684.596191</ele>
        <time>2011-02-18T14:04:55Z</time>
      </trkpt>
      <trkpt lat="44.46882" lon="6.04908">
        <ele>687.47998</ele>
        <time>2011-02-18T14:05:15Z</time>
      </trkpt>
      <trkpt lat="44.46871" lon="6.04948">
        <ele>689.883301</ele>
        <time>2011-02-18T14:05:33Z</time>
      </trkpt>
      <trkpt lat="44.46876" lon="6.04976">
        <ele>692.286621</ele>
        <time>2011-02-18T14:05:45Z</time>
      </trkpt>
      <trkpt lat="44.46911" lon="6.04992">
        <ele>694.209229</ele>
        <time>2011-02-18T14:06:05Z</time>
      </trkpt>
      <trkpt lat="44.46952" lon="6.04998">
        <ele>697.093018</ele>
        <time>2011-02-18T14:06:27Z</time>
      </trkpt>
      <trkpt lat="44.46985" lon="6.04985">
        <ele>699.496338</ele>
        <time>2011-02-18T14:06:45Z</time>
      </trkpt>
      <trkpt lat="44.47023" lon="6.04959">
        <ele>702.380371</ele>
        <time>2011-02-18T14:07:07Z</time>
      </trkpt>
      <trkpt lat="44.47054" lon="6.04938">
        <ele>704.303223</ele>
        <time>2011-02-18T14:07:26Z</time>
      </trkpt>
      <trkpt lat="44.47095" lon="6.04918">
        <ele>706.225586</ele>
        <time>2011-02-18T14:07:47Z</time>
      </trkpt>
      <trkpt lat="44.47123" lon="6.04913">
        <ele>707.187012</ele>
        <time>2011-02-18T14:08:00Z</time>
      </trkpt>
      <trkpt lat="44.47161" lon="6.04913">
        <ele>708.628906</ele>
        <time>2011-02-18T14:08:17Z</time>
      </trkpt>
      <trkpt lat="44.4719" lon="6.04911">
        <ele>710.070801</ele>
        <time>2011-02-18T14:08:31Z</time>
      </trkpt>
      <trkpt lat="44.47229" lon="6.04911">
        <ele>711.512939</ele>
        <time>2011-02-18T14:08:50Z</time>
      </trkpt>
      <trkpt lat="44.47272" lon="6.04909">
        <ele>713.435547</ele>
        <time>2011-02-18T14:09:10Z</time>
      </trkpt>
      <trkpt lat="44.47325" lon="6.04913">
        <ele>715.358154</ele>
        <time>2011-02-18T14:09:35Z</time>
      </trkpt>
      <trkpt lat="44.47378" lon="6.04925">
        <ele>717.761475</ele>
        <time>2011-02-18T14:10:01Z</time>
      </trkpt>
      <trkpt lat="44.47409" lon="6.04932">
        <ele>719.203613</ele>
        <time>2011-02-18T14:10:17Z</time>
      </trkpt>
      <trkpt lat="44.4744" lon="6.04955">
        <ele>722.568115</ele>
        <time>2011-02-18T14:10:35Z</time>
      </trkpt>
      <trkpt lat="44.47463" lon="6.0499">
        <ele>724.971436</ele>
        <time>2011-02-18T14:10:53Z</time>
      </trkpt>
      <trkpt lat="44.47488" lon="6.05027">
        <ele>726.894043</ele>
        <time>2011-02-18T14:11:12Z</time>
      </trkpt>
      <trkpt lat="44.47516" lon="6.05003">
        <ele>728.335938</ele>
        <time>2011-02-18T14:11:28Z</time>
      </trkpt>
      <trkpt lat="44.47548" lon="6.04965">
        <ele>731.219971</ele>
        <time>2011-02-18T14:11:49Z</time>
      </trkpt>
      <trkpt lat="44.47572" lon="6.0494">
        <ele>733.623291</ele>
        <time>2011-02-18T14:12:05Z</time>
      </trkpt>
      <trkpt lat="44.47611" lon="6.04929">
        <ele>735.545898</ele>
        <time>2011-02-18T14:12:26Z</time>
      </trkpt>
      <trkpt lat="44.47642" lon="6.04941">
        <ele>737.468506</ele>
        <time>2011-02-18T14:12:43Z</time>
      </trkpt>
      <trkpt lat="44.47673" lon="6.0496">
        <ele>740.352539</ele>
        <time>2011-02-18T14:13:01Z</time>
      </trkpt>
      <trkpt lat="44.47694" lon="6.04977">
        <ele>742.755859</ele>
        <time>2011-02-18T14:13:14Z</time>
      </trkpt>
      <trkpt lat="44.47704" lon="6.04985">
        <ele>742.275146</ele>
        <time>2011-02-18T14:13:20Z</time>
      </trkpt>
      <trkpt lat="44.47735" lon="6.05001">
        <ele>743.717041</ele>
        <time>2011-02-18T14:13:37Z</time>
      </trkpt>
      <trkpt lat="44.47739" lon="6.05002">
        <ele>745.158936</ele>
        <time>2011-02-18T14:13:39Z</time>
      </trkpt>
      <trkpt lat="44.47779" lon="6.0501">
        <ele>745.639648</ele>
        <time>2011-02-18T14:13:59Z</time>
      </trkpt>
      <trkpt lat="44.47814" lon="6.05015">
        <ele>749.004395</ele>
        <time>2011-02-18T14:14:17Z</time>
      </trkpt>
      <trkpt lat="44.47834" lon="6.05016">
        <ele>749.96582</ele>
        <time>2011-02-18T14:14:26Z</time>
      </trkpt>
      <trkpt lat="44.47856" lon="6.05003">
        <ele>750.927002</ele>
        <time>2011-02-18T14:14:41Z</time>
      </trkpt>
      <trkpt lat="44.47897" lon="6.04996">
        <ele>753.811035</ele>
        <time>2011-02-18T14:15:00Z</time>
      </trkpt>
      <trkpt lat="44.47909" lon="6.04993">
        <ele>754.291748</ele>
        <time>2011-02-18T14:15:06Z</time>
      </trkpt>
      <trkpt lat="44.47947" lon="6.04993">
        <ele>756.694824</ele>
        <time>2011-02-18T14:15:25Z</time>
      </trkpt>
      <trkpt lat="44.47993" lon="6.04998">
        <ele>760.059326</ele>
        <time>2011-02-18T14:15:49Z</time>
      </trkpt>
      <trkpt lat="44.47996" lon="6.05">
        <ele>760.059326</ele>
        <time>2011-02-18T14:15:50Z</time>
      </trkpt>
      <trkpt lat="44.48016" lon="6.05047">
        <ele>762.462646</ele>
        <time>2011-02-18T14:16:10Z</time>
      </trkpt>
      <trkpt lat="44.48055" lon="6.05092">
        <ele>765.346924</ele>
        <time>2011-02-18T14:16:35Z</time>
      </trkpt>
      <trkpt lat="44.48081" lon="6.05139">
        <ele>767.75</ele>
        <time>2011-02-18T14:16:55Z</time>
      </trkpt>
      <trkpt lat="44.48106" lon="6.05182">
        <ele>770.15332</ele>
        <time>2011-02-18T14:17:16Z</time>
      </trkpt>
      <trkpt lat="44.48111" lon="6.05191">
        <ele>771.114746</ele>
        <time>2011-02-18T14:17:20Z</time>
      </trkpt>
      <trkpt lat="44.48132" lon="6.05224">
        <ele>772.556641</ele>
        <time>2011-02-18T14:17:37Z</time>
      </trkpt>
      <trkpt lat="44.48158" lon="6.05252">
        <ele>773.518066</ele>
        <time>2011-02-18T14:17:54Z</time>
      </trkpt>
      <trkpt lat="44.4816" lon="6.05253">
        <ele>775.44043</ele>
        <time>2011-02-18T14:17:56Z</time>
      </trkpt>
      <trkpt lat="44.48182" lon="6.05263">
        <ele>776.882568</ele>
        <time>2011-02-18T14:18:08Z</time>
      </trkpt>
      <trkpt lat="44.48212" lon="6.0525">
        <ele>777.84375</ele>
        <time>2011-02-18T14:18:23Z</time>
      </trkpt>
      <trkpt lat="44.48254" lon="6.0524">
        <ele>779.766357</ele>
        <time>2011-02-18T14:18:42Z</time>
      </trkpt>
      <trkpt lat="44.48292" lon="6.05221">
        <ele>782.650635</ele>
        <time>2011-02-18T14:19:01Z</time>
      </trkpt>
      <trkpt lat="44.48316" lon="6.05177">
        <ele>784.092529</ele>
        <time>2011-02-18T14:19:17Z</time>
      </trkpt>
      <trkpt lat="44.48343" lon="6.05127">
        <ele>785.053955</ele>
        <time>2011-02-18T14:19:34Z</time>
      </trkpt>
      <trkpt lat="44.4837" lon="6.05071">
        <ele>785.534424</ele>
        <time>2011-02-18T14:19:51Z</time>
      </trkpt>
      <trkpt lat="44.48388" lon="6.05012">
        <ele>784.573242</ele>
        <time>2011-02-18T14:20:06Z</time>
      </trkpt>
      <trkpt lat="44.48423" lon="6.04969">
        <ele>784.573242</ele>
        <time>2011-02-18T14:20:20Z</time>
      </trkpt>
      <trkpt lat="44.48471" lon="6.04951">
        <ele>785.534424</ele>
        <time>2011-02-18T14:20:36Z</time>
      </trkpt>
      <trkpt lat="44.48512" lon="6.04965">
        <ele>786.49585</ele>
        <time>2011-02-18T14:20:51Z</time>
      </trkpt>
      <trkpt lat="44.48573" lon="6.04977">
        <ele>787.457031</ele>
        <time>2011-02-18T14:21:12Z</time>
      </trkpt>
      <trkpt lat="44.48623" lon="6.04971">
        <ele>788.418457</ele>
        <time>2011-02-18T14:21:29Z</time>
      </trkpt>
      <trkpt lat="44.48676" lon="6.04974">
        <ele>790.341064</ele>
        <time>2011-02-18T14:21:49Z</time>
      </trkpt>
      <trkpt lat="44.4872" lon="6.04982">
        <ele>792.744385</ele>
        <time>2011-02-18T14:22:07Z</time>
      </trkpt>
      <trkpt lat="44.48754" lon="6.04988">
        <ele>797.070313</ele>
        <time>2011-02-18T14:22:22Z</time>
      </trkpt>
      <trkpt lat="44.48756" lon="6.04989">
        <ele>797.070313</ele>
        <time>2011-02-18T14:22:23Z</time>
      </trkpt>
      <trkpt lat="44.48797" lon="6.05011">
        <ele>798.99292</ele>
        <time>2011-02-18T14:22:42Z</time>
      </trkpt>
      <trkpt lat="44.48831" lon="6.05048">
        <ele>797.551025</ele>
        <time>2011-02-18T14:22:56Z</time>
      </trkpt>
      <trkpt lat="44.48838" lon="6.05016">
        <ele>796.109131</ele>
        <time>2011-02-18T14:22:59Z</time>
      </trkpt>
      <trkpt lat="44.48846" lon="6.05078">
        <ele>793.224854</ele>
        <time>2011-02-18T14:23:02Z</time>
      </trkpt>
      <trkpt lat="44.48882" lon="6.0514">
        <ele>790.341064</ele>
        <time>2011-02-18T14:23:10Z</time>
      </trkpt>
      <trkpt lat="44.48903" lon="6.05186">
        <ele>787.937744</ele>
        <time>2011-02-18T14:23:15Z</time>
      </trkpt>
      <trkpt lat="44.4893" lon="6.05223">
        <ele>787.457031</ele>
        <time>2011-02-18T14:23:20Z</time>
      </trkpt>
      <trkpt lat="44.49024" lon="6.05261">
        <ele>784.573242</ele>
        <time>2011-02-18T14:23:34Z</time>
      </trkpt>
      <trkpt lat="44.49059" lon="6.05281">
        <ele>786.49585</ele>
        <time>2011-02-18T14:23:41Z</time>
      </trkpt>
      <trkpt lat="44.49073" lon="6.0529">
        <ele>787.937744</ele>
        <time>2011-02-18T14:23:45Z</time>
      </trkpt>
      <trkpt lat="44.49099" lon="6.05308">
        <ele>789.860352</ele>
        <time>2011-02-18T14:23:55Z</time>
      </trkpt>
      <trkpt lat="44.49137" lon="6.05332">
        <ele>791.782959</ele>
        <time>2011-02-18T14:24:11Z</time>
      </trkpt>
      <trkpt lat="44.49183" lon="6.05362">
        <ele>791.782959</ele>
        <time>2011-02-18T14:24:29Z</time>
      </trkpt>
      <trkpt lat="44.49241" lon="6.05412">
        <ele>792.744385</ele>
        <time>2011-02-18T14:24:49Z</time>
      </trkpt>
      <trkpt lat="44.49311" lon="6.05474">
        <ele>792.263672</ele>
        <time>2011-02-18T14:25:10Z</time>
      </trkpt>
      <trkpt lat="44.49369" lon="6.05506">
        <ele>794.666748</ele>
        <time>2011-02-18T14:25:28Z</time>
      </trkpt>
      <trkpt lat="44.49392" lon="6.05515">
        <ele>795.628174</ele>
        <time>2011-02-18T14:25:35Z</time>
      </trkpt>
      <trkpt lat="44.49442" lon="6.0553">
        <ele>795.628174</ele>
        <time>2011-02-18T14:25:50Z</time>
      </trkpt>
      <trkpt lat="44.49519" lon="6.0554">
        <ele>795.628174</ele>
        <time>2011-02-18T14:26:11Z</time>
      </trkpt>
      <trkpt lat="44.49525" lon="6.05542">
        <ele>797.070313</ele>
        <time>2011-02-18T14:26:13Z</time>
      </trkpt>
      <trkpt lat="44.49583" lon="6.05557">
        <ele>798.99292</ele>
        <time>2011-02-18T14:26:30Z</time>
      </trkpt>
      <trkpt lat="44.49639" lon="6.05592">
        <ele>801.39624</ele>
        <time>2011-02-18T14:26:50Z</time>
      </trkpt>
      <trkpt lat="44.49678" lon="6.05611">
        <ele>802.838135</ele>
        <time>2011-02-18T14:27:05Z</time>
      </trkpt>
      <trkpt lat="44.49728" lon="6.05636">
        <ele>802.838135</ele>
        <time>2011-02-18T14:27:26Z</time>
      </trkpt>
      <trkpt lat="44.49728" lon="6.05636">
        <ele>802.838135</ele>
        <time>2011-02-18T14:27:52Z</time>
      </trkpt>
      <trkpt lat="44.49741" lon="6.05641">
        <ele>801.876953</ele>
        <time>2011-02-18T14:28:19Z</time>
      </trkpt>
      <trkpt lat="44.49792" lon="6.05645">
        <ele>798.031738</ele>
        <time>2011-02-18T14:28:29Z</time>
      </trkpt>
      <trkpt lat="44.498" lon="6.05645">
        <ele>798.031738</ele>
        <time>2011-02-18T14:28:30Z</time>
      </trkpt>
      <trkpt lat="44.49823" lon="6.05636">
        <ele>796.109131</ele>
        <time>2011-02-18T14:28:33Z</time>
      </trkpt>
      <trkpt lat="44.49842" lon="6.05631">
        <ele>794.186279</ele>
        <time>2011-02-18T14:28:35Z</time>
      </trkpt>
      <trkpt lat="44.49864" lon="6.0563">
        <ele>792.744385</ele>
        <time>2011-02-18T14:28:37Z</time>
      </trkpt>
      <trkpt lat="44.49885" lon="6.0563">
        <ele>787.937744</ele>
        <time>2011-02-18T14:28:39Z</time>
      </trkpt>
      <trkpt lat="44.49897" lon="6.0563">
        <ele>787.937744</ele>
        <time>2011-02-18T14:28:40Z</time>
      </trkpt>
      <trkpt lat="44.4992" lon="6.0563">
        <ele>786.015137</ele>
        <time>2011-02-18T14:28:42Z</time>
      </trkpt>
      <trkpt lat="44.49942" lon="6.0563">
        <ele>784.092529</ele>
        <time>2011-02-18T14:28:44Z</time>
      </trkpt>
      <trkpt lat="44.49976" lon="6.05629">
        <ele>781.689209</ele>
        <time>2011-02-18T14:28:47Z</time>
      </trkpt>
      <trkpt lat="44.50039" lon="6.0562">
        <ele>779.766357</ele>
        <time>2011-02-18T14:28:53Z</time>
      </trkpt>
      <trkpt lat="44.5009" lon="6.05626">
        <ele>777.84375</ele>
        <time>2011-02-18T14:28:58Z</time>
      </trkpt>
      <trkpt lat="44.50116" lon="6.05641">
        <ele>775.44043</ele>
        <time>2011-02-18T14:29:01Z</time>
      </trkpt>
      <trkpt lat="44.50134" lon="6.05651">
        <ele>774.479248</ele>
        <time>2011-02-18T14:29:03Z</time>
      </trkpt>
      <trkpt lat="44.5017" lon="6.05674">
        <ele>770.634033</ele>
        <time>2011-02-18T14:29:07Z</time>
      </trkpt>
      <trkpt lat="44.5018" lon="6.05679">
        <ele>770.634033</ele>
        <time>2011-02-18T14:29:08Z</time>
      </trkpt>
      <trkpt lat="44.50198" lon="6.05689">
        <ele>769.672852</ele>
        <time>2011-02-18T14:29:10Z</time>
      </trkpt>
      <trkpt lat="44.50217" lon="6.05699">
        <ele>767.75</ele>
        <time>2011-02-18T14:29:12Z</time>
      </trkpt>
      <trkpt lat="44.50253" lon="6.05719">
        <ele>766.308105</ele>
        <time>2011-02-18T14:29:16Z</time>
      </trkpt>
      <trkpt lat="44.50371" lon="6.05785">
        <ele>764.385498</ele>
        <time>2011-02-18T14:29:31Z</time>
      </trkpt>
      <trkpt lat="44.50401" lon="6.05795">
        <ele>763.424072</ele>
        <time>2011-02-18T14:29:35Z</time>
      </trkpt>
      <trkpt lat="44.50471" lon="6.05766">
        <ele>760.059326</ele>
        <time>2011-02-18T14:29:44Z</time>
      </trkpt>
      <trkpt lat="44.50485" lon="6.05733">
        <ele>758.617432</ele>
        <time>2011-02-18T14:29:47Z</time>
      </trkpt>
      <trkpt lat="44.50496" lon="6.05713">
        <ele>756.694824</ele>
        <time>2011-02-18T14:29:49Z</time>
      </trkpt>
      <trkpt lat="44.5055" lon="6.05647">
        <ele>753.330322</ele>
        <time>2011-02-18T14:29:57Z</time>
      </trkpt>
      <trkpt lat="44.50586" lon="6.05631">
        <ele>750.446533</ele>
        <time>2011-02-18T14:30:01Z</time>
      </trkpt>
      <trkpt lat="44.50646" lon="6.05614">
        <ele>746.601074</ele>
        <time>2011-02-18T14:30:07Z</time>
      </trkpt>
      <trkpt lat="44.50656" lon="6.0561">
        <ele>746.601074</ele>
        <time>2011-02-18T14:30:08Z</time>
      </trkpt>
      <trkpt lat="44.50693" lon="6.05586">
        <ele>744.197754</ele>
        <time>2011-02-18T14:30:12Z</time>
      </trkpt>
      <trkpt lat="44.50728" lon="6.05574">
        <ele>740.833008</ele>
        <time>2011-02-18T14:30:15Z</time>
      </trkpt>
      <trkpt lat="44.5079" lon="6.05559">
        <ele>736.987793</ele>
        <time>2011-02-18T14:30:21Z</time>
      </trkpt>
      <trkpt lat="44.50801" lon="6.05555">
        <ele>736.987793</ele>
        <time>2011-02-18T14:30:22Z</time>
      </trkpt>
      <trkpt lat="44.50863" lon="6.05538">
        <ele>734.104004</ele>
        <time>2011-02-18T14:30:28Z</time>
      </trkpt>
      <trkpt lat="44.50927" lon="6.0553">
        <ele>730.739258</ele>
        <time>2011-02-18T14:30:34Z</time>
      </trkpt>
      <trkpt lat="44.50938" lon="6.05528">
        <ele>730.739258</ele>
        <time>2011-02-18T14:30:35Z</time>
      </trkpt>
      <trkpt lat="44.50971" lon="6.05519">
        <ele>727.855225</ele>
        <time>2011-02-18T14:30:38Z</time>
      </trkpt>
      <trkpt lat="44.50993" lon="6.05513">
        <ele>726.41333</ele>
        <time>2011-02-18T14:30:40Z</time>
      </trkpt>
      <trkpt lat="44.51094" lon="6.05496">
        <ele>724.490723</ele>
        <time>2011-02-18T14:30:50Z</time>
      </trkpt>
      <trkpt lat="44.51113" lon="6.05499">
        <ele>723.529541</ele>
        <time>2011-02-18T14:30:52Z</time>
      </trkpt>
      <trkpt lat="44.51222" lon="6.05528">
        <ele>721.126221</ele>
        <time>2011-02-18T14:31:06Z</time>
      </trkpt>
      <trkpt lat="44.51277" lon="6.05553">
        <ele>718.242188</ele>
        <time>2011-02-18T14:31:13Z</time>
      </trkpt>
      <trkpt lat="44.51293" lon="6.05565">
        <ele>716.800293</ele>
        <time>2011-02-18T14:31:15Z</time>
      </trkpt>
      <trkpt lat="44.51343" lon="6.05598">
        <ele>712.954834</ele>
        <time>2011-02-18T14:31:21Z</time>
      </trkpt>
      <trkpt lat="44.51351" lon="6.05604">
        <ele>712.954834</ele>
        <time>2011-02-18T14:31:22Z</time>
      </trkpt>
      <trkpt lat="44.51387" lon="6.05619">
        <ele>711.032227</ele>
        <time>2011-02-18T14:31:26Z</time>
      </trkpt>
      <trkpt lat="44.51443" lon="6.05642">
        <ele>707.667725</ele>
        <time>2011-02-18T14:31:32Z</time>
      </trkpt>
      <trkpt lat="44.5148" lon="6.05663">
        <ele>705.264404</ele>
        <time>2011-02-18T14:31:36Z</time>
      </trkpt>
      <trkpt lat="44.51535" lon="6.05697">
        <ele>701.899902</ele>
        <time>2011-02-18T14:31:42Z</time>
      </trkpt>
      <trkpt lat="44.51544" lon="6.05703">
        <ele>701.899902</ele>
        <time>2011-02-18T14:31:43Z</time>
      </trkpt>
      <trkpt lat="44.51664" lon="6.05783">
        <ele>699.977051</ele>
        <time>2011-02-18T14:31:59Z</time>
      </trkpt>
      <trkpt lat="44.51769" lon="6.05826">
        <ele>697.093018</ele>
        <time>2011-02-18T14:32:15Z</time>
      </trkpt>
      <trkpt lat="44.51804" lon="6.05838">
        <ele>695.17041</ele>
        <time>2011-02-18T14:32:20Z</time>
      </trkpt>
      <trkpt lat="44.51854" lon="6.05847">
        <ele>695.17041</ele>
        <time>2011-02-18T14:32:27Z</time>
      </trkpt>
      <trkpt lat="44.51975" lon="6.0582">
        <ele>694.209229</ele>
        <time>2011-02-18T14:32:45Z</time>
      </trkpt>
      <trkpt lat="44.5207" lon="6.05799">
        <ele>691.805908</ele>
        <time>2011-02-18T14:33:02Z</time>
      </trkpt>
      <trkpt lat="44.52094" lon="6.05791">
        <ele>691.325195</ele>
        <time>2011-02-18T14:33:06Z</time>
      </trkpt>
      <trkpt lat="44.52121" lon="6.05784">
        <ele>688.922119</ele>
        <time>2011-02-18T14:33:10Z</time>
      </trkpt>
      <trkpt lat="44.52147" lon="6.05781">
        <ele>687.47998</ele>
        <time>2011-02-18T14:33:13Z</time>
      </trkpt>
      <trkpt lat="44.52167" lon="6.05797">
        <ele>686.999268</ele>
        <time>2011-02-18T14:33:15Z</time>
      </trkpt>
      <trkpt lat="44.52217" lon="6.0588">
        <ele>684.115479</ele>
        <time>2011-02-18T14:33:25Z</time>
      </trkpt>
      <trkpt lat="44.52224" lon="6.05893">
        <ele>682.67334</ele>
        <time>2011-02-18T14:33:27Z</time>
      </trkpt>
      <trkpt lat="44.52258" lon="6.05955">
        <ele>680.27002</ele>
        <time>2011-02-18T14:33:40Z</time>
      </trkpt>
      <trkpt lat="44.52285" lon="6.05959">
        <ele>680.27002</ele>
        <time>2011-02-18T14:33:50Z</time>
      </trkpt>
      <trkpt lat="44.52304" lon="6.05954">
        <ele>681.711914</ele>
        <time>2011-02-18T14:33:56Z</time>
      </trkpt>
      <trkpt lat="44.52313" lon="6.05952">
        <ele>680.27002</ele>
        <time>2011-02-18T14:33:59Z</time>
      </trkpt>
      <trkpt lat="44.5235" lon="6.05959">
        <ele>682.67334</ele>
        <time>2011-02-18T14:34:16Z</time>
      </trkpt>
      <trkpt lat="44.52374" lon="6.05978">
        <ele>686.038086</ele>
        <time>2011-02-18T14:34:30Z</time>
      </trkpt>
      <trkpt lat="44.52412" lon="6.06007">
        <ele>689.883301</ele>
        <time>2011-02-18T14:34:54Z</time>
      </trkpt>
      <trkpt lat="44.52458" lon="6.05956">
        <ele>692.767334</ele>
        <time>2011-02-18T14:35:09Z</time>
      </trkpt>
      <trkpt lat="44.52496" lon="6.05961">
        <ele>696.131836</ele>
        <time>2011-02-18T14:35:30Z</time>
      </trkpt>
      <trkpt lat="44.52503" lon="6.05962">
        <ele>696.612549</ele>
        <time>2011-02-18T14:35:34Z</time>
      </trkpt>
      <trkpt lat="44.52539" lon="6.05967">
        <ele>699.496338</ele>
        <time>2011-02-18T14:35:54Z</time>
      </trkpt>
      <trkpt lat="44.52569" lon="6.05972">
        <ele>702.380371</ele>
        <time>2011-02-18T14:36:12Z</time>
      </trkpt>
      <trkpt lat="44.52612" lon="6.05978">
        <ele>705.745117</ele>
        <time>2011-02-18T14:36:36Z</time>
      </trkpt>
      <trkpt lat="44.52652" lon="6.05983">
        <ele>708.628906</ele>
        <time>2011-02-18T14:36:57Z</time>
      </trkpt>
      <trkpt lat="44.52666" lon="6.05985">
        <ele>709.109619</ele>
        <time>2011-02-18T14:37:04Z</time>
      </trkpt>
      <trkpt lat="44.52718" lon="6.05994">
        <ele>710.551514</ele>
        <time>2011-02-18T14:37:28Z</time>
      </trkpt>
      <trkpt lat="44.52764" lon="6.06004">
        <ele>711.512939</ele>
        <time>2011-02-18T14:37:45Z</time>
      </trkpt>
      <trkpt lat="44.52851" lon="6.06023">
        <ele>712.474121</ele>
        <time>2011-02-18T14:38:12Z</time>
      </trkpt>
      <trkpt lat="44.52922" lon="6.06042">
        <ele>712.954834</ele>
        <time>2011-02-18T14:38:34Z</time>
      </trkpt>
      <trkpt lat="44.52985" lon="6.0606">
        <ele>712.954834</ele>
        <time>2011-02-18T14:38:51Z</time>
      </trkpt>
      <trkpt lat="44.53064" lon="6.06082">
        <ele>713.916016</ele>
        <time>2011-02-18T14:39:12Z</time>
      </trkpt>
      <trkpt lat="44.53135" lon="6.06103">
        <ele>713.435547</ele>
        <time>2011-02-18T14:39:31Z</time>
      </trkpt>
      <trkpt lat="44.53183" lon="6.06115">
        <ele>714.877441</ele>
        <time>2011-02-18T14:39:44Z</time>
      </trkpt>
      <trkpt lat="44.53242" lon="6.06131">
        <ele>715.838867</ele>
        <time>2011-02-18T14:40:01Z</time>
      </trkpt>
      <trkpt lat="44.53314" lon="6.06151">
        <ele>715.358154</ele>
        <time>2011-02-18T14:40:20Z</time>
      </trkpt>
      <trkpt lat="44.53367" lon="6.06165">
        <ele>715.838867</ele>
        <time>2011-02-18T14:40:34Z</time>
      </trkpt>
      <trkpt lat="44.53439" lon="6.06186">
        <ele>717.281006</ele>
        <time>2011-02-18T14:40:54Z</time>
      </trkpt>
      <trkpt lat="44.53519" lon="6.06211">
        <ele>716.31958</ele>
        <time>2011-02-18T14:41:16Z</time>
      </trkpt>
      <trkpt lat="44.53526" lon="6.06212">
        <ele>718.242188</ele>
        <time>2011-02-18T14:41:18Z</time>
      </trkpt>
      <trkpt lat="44.53533" lon="6.06214">
        <ele>716.800293</ele>
        <time>2011-02-18T14:41:20Z</time>
      </trkpt>
      <trkpt lat="44.53575" lon="6.06227">
        <ele>718.7229</ele>
        <time>2011-02-18T14:41:32Z</time>
      </trkpt>
      <trkpt lat="44.53629" lon="6.06244">
        <ele>720.645508</ele>
        <time>2011-02-18T14:41:50Z</time>
      </trkpt>
      <trkpt lat="44.53707" lon="6.06271">
        <ele>722.568115</ele>
        <time>2011-02-18T14:42:15Z</time>
      </trkpt>
      <trkpt lat="44.53812" lon="6.0631">
        <ele>724.971436</ele>
        <time>2011-02-18T14:42:47Z</time>
      </trkpt>
      <trkpt lat="44.53857" lon="6.06329">
        <ele>726.41333</ele>
        <time>2011-02-18T14:43:00Z</time>
      </trkpt>
      <trkpt lat="44.53878" lon="6.06338">
        <ele>726.41333</ele>
        <time>2011-02-18T14:43:06Z</time>
      </trkpt>
      <trkpt lat="44.53922" lon="6.06366">
        <ele>726.41333</ele>
        <time>2011-02-18T14:43:22Z</time>
      </trkpt>
      <trkpt lat="44.53965" lon="6.06377">
        <ele>727.374756</ele>
        <time>2011-02-18T14:43:40Z</time>
      </trkpt>
      <trkpt lat="44.54096" lon="6.06434">
        <ele>726.894043</ele>
        <time>2011-02-18T14:44:04Z</time>
      </trkpt>
      <trkpt lat="44.54187" lon="6.06473">
        <ele>726.894043</ele>
        <time>2011-02-18T14:44:28Z</time>
      </trkpt>
      <trkpt lat="44.54247" lon="6.06497">
        <ele>730.258545</ele>
        <time>2011-02-18T14:44:44Z</time>
      </trkpt>
      <trkpt lat="44.54288" lon="6.06505">
        <ele>730.258545</ele>
        <time>2011-02-18T14:44:54Z</time>
      </trkpt>
      <trkpt lat="44.54322" lon="6.06509">
        <ele>731.219971</ele>
        <time>2011-02-18T14:45:03Z</time>
      </trkpt>
      <trkpt lat="44.5434" lon="6.0652">
        <ele>730.739258</ele>
        <time>2011-02-18T14:45:09Z</time>
      </trkpt>
      <trkpt lat="44.54342" lon="6.0651">
        <ele>730.739258</ele>
        <time>2011-02-18T14:45:28Z</time>
      </trkpt>
      <trkpt lat="44.54342" lon="6.0651">
        <ele>734.104004</ele>
        <time>2011-02-18T14:45:37Z</time>
      </trkpt>
      <trkpt lat="44.54342" lon="6.0651">
        <ele>734.104004</ele>
        <time>2011-02-18T14:45:38Z</time>
      </trkpt>
      <trkpt lat="44.54525" lon="6.06477">
        <ele>735.06543</ele>
        <time>2011-02-18T14:45:59Z</time>
      </trkpt>
      <trkpt lat="44.54619" lon="6.06458">
        <ele>736.026611</ele>
        <time>2011-02-18T14:46:25Z</time>
      </trkpt>
      <trkpt lat="44.54661" lon="6.06474">
        <ele>736.987793</ele>
        <time>2011-02-18T14:46:40Z</time>
      </trkpt>
      <trkpt lat="44.54661" lon="6.06474">
        <ele>738.429932</ele>
        <time>2011-02-18T14:46:46Z</time>
      </trkpt>
      <trkpt lat="44.54669" lon="6.06478">
        <ele>737.468506</ele>
        <time>2011-02-18T14:46:54Z</time>
      </trkpt>
      <trkpt lat="44.54673" lon="6.0648">
        <ele>739.391113</ele>
        <time>2011-02-18T14:46:56Z</time>
      </trkpt>
      <trkpt lat="44.54679" lon="6.06477">
        <ele>738.429932</ele>
        <time>2011-02-18T14:46:59Z</time>
      </trkpt>
      <trkpt lat="44.54729" lon="6.06538">
        <ele>737.949219</ele>
        <time>2011-02-18T14:47:16Z</time>
      </trkpt>
      <trkpt lat="44.54767" lon="6.06581">
        <ele>738.429932</ele>
        <time>2011-02-18T14:47:29Z</time>
      </trkpt>
      <trkpt lat="44.54782" lon="6.06598">
        <ele>736.987793</ele>
        <time>2011-02-18T14:47:34Z</time>
      </trkpt>
      <trkpt lat="44.54798" lon="6.06616">
        <ele>738.910645</ele>
        <time>2011-02-18T14:47:39Z</time>
      </trkpt>
      <trkpt lat="44.54804" lon="6.06623">
        <ele>737.468506</ele>
        <time>2011-02-18T14:47:41Z</time>
      </trkpt>
      <trkpt lat="44.54816" lon="6.06638">
        <ele>737.949219</ele>
        <time>2011-02-18T14:47:45Z</time>
      </trkpt>
      <trkpt lat="44.54854" lon="6.06681">
        <ele>735.545898</ele>
        <time>2011-02-18T14:47:57Z</time>
      </trkpt>
      <trkpt lat="44.54864" lon="6.06688">
        <ele>738.429932</ele>
        <time>2011-02-18T14:48:00Z</time>
      </trkpt>
      <trkpt lat="44.54872" lon="6.06694">
        <ele>737.949219</ele>
        <time>2011-02-18T14:48:12Z</time>
      </trkpt>
      <trkpt lat="44.54948" lon="6.06797">
        <ele>737.949219</ele>
        <time>2011-02-18T14:48:31Z</time>
      </trkpt>
      <trkpt lat="44.54964" lon="6.06816">
        <ele>736.987793</ele>
        <time>2011-02-18T14:48:37Z</time>
      </trkpt>
      <trkpt lat="44.55016" lon="6.0688">
        <ele>736.987793</ele>
        <time>2011-02-18T14:48:57Z</time>
      </trkpt>
      <trkpt lat="44.55072" lon="6.06949">
        <ele>737.468506</ele>
        <time>2011-02-18T14:49:18Z</time>
      </trkpt>
      <trkpt lat="44.55123" lon="6.07003">
        <ele>735.06543</ele>
        <time>2011-02-18T14:49:35Z</time>
      </trkpt>
      <trkpt lat="44.55137" lon="6.0702">
        <ele>736.987793</ele>
        <time>2011-02-18T14:49:39Z</time>
      </trkpt>
      <trkpt lat="44.55148" lon="6.07034">
        <ele>735.06543</ele>
        <time>2011-02-18T14:49:42Z</time>
      </trkpt>
      <trkpt lat="44.55191" lon="6.07087">
        <ele>734.584717</ele>
        <time>2011-02-18T14:49:56Z</time>
      </trkpt>
      <trkpt lat="44.55204" lon="6.07103">
        <ele>736.026611</ele>
        <time>2011-02-18T14:50:00Z</time>
      </trkpt>
      <trkpt lat="44.55222" lon="6.07126">
        <ele>734.584717</ele>
        <time>2011-02-18T14:50:05Z</time>
      </trkpt>
      <trkpt lat="44.55296" lon="6.07219">
        <ele>732.662109</ele>
        <time>2011-02-18T14:50:26Z</time>
      </trkpt>
      <trkpt lat="44.55359" lon="6.07299">
        <ele>732.181396</ele>
        <time>2011-02-18T14:50:48Z</time>
      </trkpt>
      <trkpt lat="44.55404" lon="6.07363">
        <ele>731.219971</ele>
        <time>2011-02-18T14:51:04Z</time>
      </trkpt>
      <trkpt lat="44.55407" lon="6.07367">
        <ele>731.219971</ele>
        <time>2011-02-18T14:51:05Z</time>
      </trkpt>
      <trkpt lat="44.55465" lon="6.07445">
        <ele>730.739258</ele>
        <time>2011-02-18T14:51:25Z</time>
      </trkpt>
      <trkpt lat="44.55476" lon="6.07486">
        <ele>729.777832</ele>
        <time>2011-02-18T14:51:36Z</time>
      </trkpt>
      <trkpt lat="44.55559" lon="6.07531">
        <ele>730.739258</ele>
        <time>2011-02-18T14:51:55Z</time>
      </trkpt>
      <trkpt lat="44.55562" lon="6.07535">
        <ele>730.739258</ele>
        <time>2011-02-18T14:51:56Z</time>
      </trkpt>
      <trkpt lat="44.55567" lon="6.07541">
        <ele>729.297119</ele>
        <time>2011-02-18T14:51:58Z</time>
      </trkpt>
      <trkpt lat="44.55595" lon="6.07574">
        <ele>729.777832</ele>
        <time>2011-02-18T14:52:09Z</time>
      </trkpt>
      <trkpt lat="44.55607" lon="6.07553">
        <ele>729.777832</ele>
        <time>2011-02-18T14:52:19Z</time>
      </trkpt>
      <trkpt lat="44.55618" lon="6.07533">
        <ele>730.258545</ele>
        <time>2011-02-18T14:52:25Z</time>
      </trkpt>
      <trkpt lat="44.55634" lon="6.07533">
        <ele>731.219971</ele>
        <time>2011-02-18T14:52:31Z</time>
      </trkpt>
      <trkpt lat="44.55679" lon="6.07575">
        <ele>732.181396</ele>
        <time>2011-02-18T14:52:49Z</time>
      </trkpt>
      <trkpt lat="44.557" lon="6.07572">
        <ele>732.181396</ele>
        <time>2011-02-18T14:52:55Z</time>
      </trkpt>
      <trkpt lat="44.55731" lon="6.07504">
        <ele>735.06543</ele>
        <time>2011-02-18T14:53:17Z</time>
      </trkpt>
      <trkpt lat="44.55752" lon="6.07472">
        <ele>736.987793</ele>
        <time>2011-02-18T14:53:31Z</time>
      </trkpt>
      <trkpt lat="44.55756" lon="6.07467">
        <ele>736.507324</ele>
        <time>2011-02-18T14:53:41Z</time>
      </trkpt>
      <trkpt lat="44.55781" lon="6.07454">
        <ele>737.949219</ele>
        <time>2011-02-18T14:53:53Z</time>
      </trkpt>
      <trkpt lat="44.55796" lon="6.07448">
        <ele>738.910645</ele>
        <time>2011-02-18T14:53:59Z</time>
      </trkpt>
      <trkpt lat="44.55804" lon="6.07444">
        <ele>739.871826</ele>
        <time>2011-02-18T14:54:04Z</time>
      </trkpt>
      <trkpt lat="44.55814" lon="6.07443">
        <ele>740.352539</ele>
        <time>2011-02-18T14:54:13Z</time>
      </trkpt>
      <trkpt lat="44.55824" lon="6.07444">
        <ele>740.352539</ele>
        <time>2011-02-18T14:54:25Z</time>
      </trkpt>
      <trkpt lat="44.55864" lon="6.07481">
        <ele>740.833008</ele>
        <time>2011-02-18T14:54:41Z</time>
      </trkpt>
      <trkpt lat="44.55877" lon="6.07494">
        <ele>741.313721</ele>
        <time>2011-02-18T14:54:47Z</time>
      </trkpt>
      <trkpt lat="44.55879" lon="6.07495">
        <ele>741.794434</ele>
        <time>2011-02-18T14:55:01Z</time>
      </trkpt>
      <trkpt lat="44.55879" lon="6.07495">
        <ele>741.794434</ele>
        <time>2011-02-18T14:55:12Z</time>
      </trkpt>
    </trkseg>
  </trk>
</gpx>